Observation data for Tahoka on 05/24/2020      Previous  Date  Next       Current Mesonet Observations  Soil Data  Daily Summary Page  Observations in Plain Language
KTAS 240500Z 16012KT 17/14 A2986 RMK A01 T01730141  RH  082%=      5-min Rain = 0
KTAS 240501Z 15012KT 17/14 A2986 RMK A01 T01730141  RH  082%=      5-min Rain = 0
KTAS 240502Z 15011KT 17/14 A2986 RMK A01 T01730142  RH  082%=      5-min Rain = 0
KTAS 240503Z 15009KT 17/14 A2986 RMK A01 T01730142  RH  082%=      5-min Rain = 0
KTAS 240504Z 15011KT 17/14 A2986 RMK A01 T01730143  RH  082%=      5-min Rain = 0
KTAS 240505Z 15009KT 17/14 A2986 RMK A01 T01740143  RH  082%=      5-min Rain = 0
KTAS 240506Z 16010KT 17/14 A2986 RMK A01 T01740144  RH  083%=      5-min Rain = 0
KTAS 240507Z 16010KT 17/14 A2986 RMK A01 T01740144  RH  083%=      5-min Rain = 0
KTAS 240508Z 16010KT 17/14 A2986 RMK A01 T01740144  RH  083%=      5-min Rain = 0
KTAS 240509Z 16009KT 17/14 A2986 RMK A01 T01740143  RH  082%=      5-min Rain = 0
KTAS 240510Z 16010KT 17/14 A2986 RMK A01 T01740143  RH  082%=      5-min Rain = 0
KTAS 240511Z 16009KT 17/14 A2986 RMK A01 T01740144  RH  082%=      5-min Rain = 0
KTAS 240512Z 16010KT 17/14 A2987 RMK A01 T01740144  RH  082%=      5-min Rain = 0
KTAS 240513Z 16010KT 17/14 A2987 RMK A01 T01740144  RH  082%=      5-min Rain = 0
KTAS 240514Z 16011KT 17/14 A2987 RMK A01 T01740144  RH  082%=      5-min Rain = 0
KTAS 240515Z 16011KT 18/15 A2987 RMK A01 T01750145  RH  082%=      5-min Rain = 0
KTAS 240516Z 16011KT 18/15 A2987 RMK A01 T01750145  RH  082%=      5-min Rain = 0
KTAS 240517Z 15010KT 18/15 A2987 RMK A01 T01760145  RH  082%=      5-min Rain = 0
KTAS 240518Z 15010KT 18/15 A2987 RMK A01 T01760145  RH  082%=      5-min Rain = 0
KTAS 240519Z 15010KT 18/15 A2987 RMK A01 T01760145  RH  082%=      5-min Rain = 0
KTAS 240520Z 16009KT 18/15 A2987 RMK A01 T01760145  RH  082%=      5-min Rain = 0
KTAS 240521Z 17009KT 18/15 A2987 RMK A01 T01750146  RH  083%=      5-min Rain = 0
KTAS 240522Z 16010KT 17/15 A2987 RMK A01 T01740146  RH  083%=      5-min Rain = 0
KTAS 240523Z 16009KT 17/15 A2987 RMK A01 T01740146  RH  083%=      5-min Rain = 0
KTAS 240524Z 16010KT 18/15 A2987 RMK A01 T01750146  RH  083%=      5-min Rain = 0
KTAS 240525Z 16010KT 17/15 A2988 RMK A01 T01740146  RH  083%=      5-min Rain = 0
KTAS 240526Z 16009KT 17/15 A2988 RMK A01 T01740147  RH  084%=      5-min Rain = 0
KTAS 240527Z 15008KT 17/15 A2988 RMK A01 T01740147  RH  084%=      5-min Rain = 0
KTAS 240528Z 15008KT 17/15 A2988 RMK A01 T01740147  RH  084%=      5-min Rain = 0
KTAS 240529Z 15007KT 17/15 A2988 RMK A01 T01730147  RH  084%=      5-min Rain = 0
KTAS 240530Z 15007KT 17/15 A2988 RMK A01 T01730146  RH  084%=      5-min Rain = 0
KTAS 240531Z 16008KT 17/15 A2988 RMK A01 T01740147  RH  084%=      5-min Rain = 0
KTAS 240532Z 14007KT 17/15 A2988 RMK A01 T01740147  RH  084%=      5-min Rain = 0
KTAS 240533Z 14007KT 17/15 A2988 RMK A01 T01740147  RH  084%=      5-min Rain = 0
KTAS 240534Z 14007KT 17/15 A2988 RMK A01 T01740146  RH  084%=      5-min Rain = 0
KTAS 240535Z 14007KT 17/15 A2988 RMK A01 T01740147  RH  084%=      5-min Rain = 0
KTAS 240536Z 15006KT 17/15 A2988 RMK A01 T01740146  RH  084%=      5-min Rain = 0
KTAS 240537Z 15006KT 17/15 A2988 RMK A01 T01740147  RH  084%=      5-min Rain = 0
KTAS 240538Z 15005KT 17/15 A2988 RMK A01 T01740147  RH  084%=      5-min Rain = 0
KTAS 240539Z 17008KT 17/15 A2988 RMK A01 T01740147  RH  084%=      5-min Rain = 0
KTAS 240540Z 17007KT 17/15 A2988 RMK A01 T01740148  RH  084%=      5-min Rain = 0
KTAS 240541Z 16008KT 17/15 A2988 RMK A01 T01740147  RH  085%=      5-min Rain = 0
KTAS 240542Z 14007KT 17/15 A2988 RMK A01 T01730147  RH  085%=      5-min Rain = 0
KTAS 240543Z 13008G13KT 17/15 A2988 RMK A01 T01740147  RH  084%=      5-min Rain = 0
KTAS 240544Z 12011KT 17/15 A2987 RMK A01 T01740146  RH  083%=      5-min Rain = 0
KTAS 240545Z 12012G17KT 18/15 A2987 RMK A01 T01750145  RH  083%=      5-min Rain = 0
KTAS 240546Z 13012KT 18/14 A2987 RMK A01 T01760143  RH  081%=      5-min Rain = 0
KTAS 240547Z 13011KT 18/14 A2987 RMK A01 T01760143  RH  081%=      5-min Rain = 0
KTAS 240548Z 14011KT 18/14 A2988 RMK A01 T01760142  RH  080%=      5-min Rain = 0
KTAS 240549Z 14011KT 18/14 A2988 RMK A01 T01770141  RH  079%=      5-min Rain = 0
KTAS 240550Z 15009KT 18/14 A2988 RMK A01 T01770140  RH  079%=      5-min Rain = 0
KTAS 240551Z 15009KT 18/14 A2988 RMK A01 T01770140  RH  079%=      5-min Rain = 0
KTAS 240552Z 14009KT 18/14 A2988 RMK A01 T01770140  RH  079%=      5-min Rain = 0
KTAS 240553Z 14008KT 18/14 A2988 RMK A01 T01760140  RH  079%=      5-min Rain = 0
KTAS 240554Z 14010KT 18/14 A2988 RMK A01 T01760140  RH  079%=      5-min Rain = 0
KTAS 240555Z 13009KT 18/14 A2988 RMK A01 T01750140  RH  080%=      5-min Rain = 0
KTAS 240556Z 13011KT 18/14 A2988 RMK A01 T01750140  RH  080%=      5-min Rain = 0
KTAS 240557Z 13011KT 17/14 A2988 RMK A01 T01740139  RH  080%=      5-min Rain = 0
KTAS 240558Z 13011KT 17/14 A2988 RMK A01 T01740139  RH  080%=      5-min Rain = 0
KTAS 240559Z 13009KT 17/14 A2988 RMK A01 T01740140  RH  080%=      5-min Rain = 0
KTAS 240600Z 13008KT 17/14 A2988 RMK A01 T01730140  RH  081%=      5-min Rain = 0
KTAS 240601Z 14009KT 17/14 A2988 RMK A01 T01720140  RH  081%=      5-min Rain = 0
KTAS 240602Z 13009KT 17/14 A2988 RMK A01 T01710139  RH  081%=      5-min Rain = 0
KTAS 240603Z 14010KT 17/14 A2988 RMK A01 T01710137  RH  080%=      5-min Rain = 0
KTAS 240604Z 14009KT 17/14 A2988 RMK A01 T01710135  RH  080%=      5-min Rain = 0
KTAS 240605Z 14009KT 17/13 A2988 RMK A01 T01710134  RH  079%=      5-min Rain = 0
KTAS 240606Z 14008KT 17/13 A2988 RMK A01 T01710134  RH  079%=      5-min Rain = 0
KTAS 240607Z 14009KT 17/13 A2988 RMK A01 T01710132  RH  078%=      5-min Rain = 0
KTAS 240608Z 15009KT 17/13 A2988 RMK A01 T01710131  RH  077%=      5-min Rain = 0
KTAS 240609Z 14010KT 17/13 A2988 RMK A01 T01710131  RH  077%=      5-min Rain = 0
KTAS 240610Z 14011KT 17/13 A2988 RMK A01 T01710130  RH  076%=      5-min Rain = 0
KTAS 240611Z 14010KT 17/13 A2988 RMK A01 T01710129  RH  076%=      5-min Rain = 0
KTAS 240612Z 13012KT 17/13 A2988 RMK A01 T01710129  RH  076%=      5-min Rain = 0
KTAS 240613Z 14013KT 17/13 A2988 RMK A01 T01710129  RH  076%=      5-min Rain = 0
KTAS 240614Z 13011KT 17/13 A2988 RMK A01 T01710129  RH  076%=      5-min Rain = 0
KTAS 240615Z 14010KT 17/13 A2988 RMK A01 T01700130  RH  077%=      5-min Rain = 0
KTAS 240616Z 13011KT 17/13 A2988 RMK A01 T01700130  RH  078%=      5-min Rain = 0
KTAS 240617Z 13011KT 17/13 A2988 RMK A01 T01690130  RH  078%=      5-min Rain = 0
KTAS 240618Z 14011KT 17/13 A2988 RMK A01 T01690130  RH  078%=      5-min Rain = 0
KTAS 240619Z 14012KT 17/13 A2988 RMK A01 T01690130  RH  078%=      5-min Rain = 0
KTAS 240620Z 14012KT 17/13 A2988 RMK A01 T01690129  RH  078%=      5-min Rain = 0
KTAS 240621Z 14010KT 17/13 A2988 RMK A01 T01690129  RH  078%=      5-min Rain = 0
KTAS 240622Z 14010KT 17/13 A2988 RMK A01 T01680130  RH  078%=      5-min Rain = 0
KTAS 240623Z 14012KT 17/13 A2988 RMK A01 T01680130  RH  078%=      5-min Rain = 0
KTAS 240624Z 14008KT 17/13 A2988 RMK A01 T01670130  RH  079%=      5-min Rain = 0
KTAS 240625Z 14009KT 17/13 A2988 RMK A01 T01670131  RH  079%=      5-min Rain = 0
KTAS 240626Z 14008KT 17/13 A2988 RMK A01 T01660131  RH  080%=      5-min Rain = 0
KTAS 240627Z 15007KT 17/13 A2988 RMK A01 T01650131  RH  080%=      5-min Rain = 0
KTAS 240628Z 15008KT 16/13 A2988 RMK A01 T01640131  RH  081%=      5-min Rain = 0
KTAS 240629Z 15008KT 16/13 A2988 RMK A01 T01640131  RH  081%=      5-min Rain = 0
KTAS 240630Z 15008KT 16/13 A2988 RMK A01 T01640132  RH  081%=      5-min Rain = 0
KTAS 240631Z 14010KT 16/13 A2988 RMK A01 T01630131  RH  081%=      5-min Rain = 0
KTAS 240632Z 15009KT 16/13 A2988 RMK A01 T01640130  RH  080%=      5-min Rain = 0
KTAS 240633Z 14009KT 16/13 A2988 RMK A01 T01640130  RH  080%=      5-min Rain = 0
KTAS 240634Z 14009KT 16/13 A2988 RMK A01 T01640130  RH  080%=      5-min Rain = 0
KTAS 240635Z 15008KT 16/13 A2988 RMK A01 T01640131  RH  081%=      5-min Rain = 0
KTAS 240636Z 15009KT 16/13 A2988 RMK A01 T01630131  RH  081%=      5-min Rain = 0
KTAS 240637Z 15009KT 16/13 A2988 RMK A01 T01630130  RH  081%=      5-min Rain = 0
KTAS 240638Z 15010KT 16/13 A2988 RMK A01 T01630130  RH  081%=      5-min Rain = 0
KTAS 240639Z 15010KT 16/13 A2988 RMK A01 T01620129  RH  081%=      5-min Rain = 0
KTAS 240640Z 15009KT 16/13 A2988 RMK A01 T01630129  RH  081%=      5-min Rain = 0
KTAS 240641Z 15010KT 16/13 A2987 RMK A01 T01630129  RH  080%=      5-min Rain = 0
KTAS 240642Z 15008KT 16/13 A2987 RMK A01 T01630128  RH  080%=      5-min Rain = 0
KTAS 240643Z 15009KT 16/13 A2988 RMK A01 T01630128  RH  080%=      5-min Rain = 0
KTAS 240644Z 15009KT 16/13 A2988 RMK A01 T01630128  RH  080%=      5-min Rain = 0
KTAS 240645Z 16010KT 16/13 A2988 RMK A01 T01620128  RH  080%=      5-min Rain = 0
KTAS 240646Z 16010KT 16/13 A2987 RMK A01 T01630128  RH  080%=      5-min Rain = 0
KTAS 240647Z 16009KT 16/13 A2987 RMK A01 T01630128  RH  080%=      5-min Rain = 0
KTAS 240648Z 15008KT 16/13 A2987 RMK A01 T01620127  RH  080%=      5-min Rain = 0
KTAS 240649Z 15008KT 16/13 A2987 RMK A01 T01630128  RH  080%=      5-min Rain = 0
KTAS 240650Z 15008KT 16/13 A2987 RMK A01 T01620128  RH  080%=      5-min Rain = 0
KTAS 240651Z 15008KT 16/13 A2987 RMK A01 T01620129  RH  081%=      5-min Rain = 0
KTAS 240652Z 14006KT 16/13 A2987 RMK A01 T01620129  RH  081%=      5-min Rain = 0
KTAS 240653Z 15005KT 16/13 A2987 RMK A01 T01610128  RH  081%=      5-min Rain = 0
KTAS 240654Z 15007KT 16/13 A2987 RMK A01 T01610128  RH  081%=      5-min Rain = 0
KTAS 240655Z 15007KT 16/13 A2987 RMK A01 T01610128  RH  080%=      5-min Rain = 0
KTAS 240656Z 15007KT 16/13 A2987 RMK A01 T01610128  RH  080%=      5-min Rain = 0
KTAS 240657Z 15007KT 16/13 A2987 RMK A01 T01620127  RH  080%=      5-min Rain = 0
KTAS 240658Z 15006KT 16/13 A2987 RMK A01 T01620128  RH  080%=      5-min Rain = 0
KTAS 240659Z 14005KT 16/13 A2987 RMK A01 T01610128  RH  081%=      5-min Rain = 0
KTAS 240700Z 14006KT 16/13 A2987 RMK A01 T01610129  RH  081%=      5-min Rain = 0
KTAS 240701Z 14006KT 16/13 A2987 RMK A01 T01610128  RH  081%=      5-min Rain = 0
KTAS 240702Z 14007KT 16/13 A2987 RMK A01 T01610128  RH  081%=      5-min Rain = 0
KTAS 240703Z 14007KT 16/13 A2987 RMK A01 T01610128  RH  081%=      5-min Rain = 0
KTAS 240704Z 15006KT 16/13 A2987 RMK A01 T01610128  RH  081%=      5-min Rain = 0
KTAS 240705Z 15009KT 16/13 A2988 RMK A01 T01610128  RH  081%=      5-min Rain = 0
KTAS 240706Z 14007KT 16/13 A2987 RMK A01 T01610128  RH  081%=      5-min Rain = 0
KTAS 240707Z 14007KT 16/13 A2987 RMK A01 T01610128  RH  081%=      5-min Rain = 0
KTAS 240708Z 13008KT 16/13 A2987 RMK A01 T01610128  RH  081%=      5-min Rain = 0
KTAS 240709Z 13007G12KT 16/13 A2987 RMK A01 T01620128  RH  080%=      5-min Rain = 0
KTAS 240710Z 14009KT 16/13 A2987 RMK A01 T01620127  RH  080%=      5-min Rain = 0
KTAS 240711Z 14009KT 16/13 A2987 RMK A01 T01630127  RH  079%=      5-min Rain = 0
KTAS 240712Z 14008KT 16/13 A2987 RMK A01 T01630127  RH  079%=      5-min Rain = 0
KTAS 240713Z 16007KT 16/13 A2987 RMK A01 T01630127  RH  079%=      5-min Rain = 0
KTAS 240714Z 17008KT 16/13 A2987 RMK A01 T01630127  RH  079%=      5-min Rain = 0
KTAS 240715Z 16008KT 16/13 A2987 RMK A01 T01620127  RH  080%=      5-min Rain = 0
KTAS 240716Z 14006KT 16/13 A2987 RMK A01 T01620128  RH  080%=      5-min Rain = 0
KTAS 240717Z 13006KT 16/13 A2987 RMK A01 T01610127  RH  080%=      5-min Rain = 0
KTAS 240718Z 13007KT 16/13 A2987 RMK A01 T01610127  RH  080%=      5-min Rain = 0
KTAS 240719Z 13007KT 16/13 A2987 RMK A01 T01610127  RH  081%=      5-min Rain = 0
KTAS 240720Z 13008KT 16/13 A2987 RMK A01 T01610128  RH  081%=      5-min Rain = 0
KTAS 240721Z 14007KT 16/13 A2987 RMK A01 T01600127  RH  081%=      5-min Rain = 0
KTAS 240722Z 17008KT 16/13 A2988 RMK A01 T01600127  RH  081%=      5-min Rain = 0
KTAS 240723Z 15008KT 16/13 A2988 RMK A01 T01600127  RH  081%=      5-min Rain = 0
KTAS 240724Z 13006KT 16/13 A2987 RMK A01 T01600128  RH  081%=      5-min Rain = 0.01
KTAS 240725Z 13008KT 16/13 A2987 RMK A01 T01600127  RH  081%=      5-min Rain = 0
KTAS 240726Z 13008KT 16/13 A2987 RMK A01 T01600127  RH  081%=      5-min Rain = 0
KTAS 240727Z 13009KT 16/13 A2987 RMK A01 T01610127  RH  081%=      5-min Rain = 0
KTAS 240728Z 13011KT 16/13 A2987 RMK A01 T01610127  RH  081%=      5-min Rain = 0
KTAS 240729Z 13010KT 16/13 A2987 RMK A01 T01610126  RH  080%=      5-min Rain = 0
KTAS 240730Z 13010KT 16/13 A2987 RMK A01 T01620126  RH  079%=      5-min Rain = 0
KTAS 240731Z 13011KT 16/13 A2987 RMK A01 T01620126  RH  079%=      5-min Rain = 0
KTAS 240732Z 13010KT 16/13 A2987 RMK A01 T01630126  RH  079%=      5-min Rain = 0
KTAS 240733Z 14009KT 16/13 A2987 RMK A01 T01630126  RH  079%=      5-min Rain = 0
KTAS 240734Z 15009KT 16/13 A2987 RMK A01 T01630127  RH  079%=      5-min Rain = 0
KTAS 240735Z 17006KT 16/13 A2987 RMK A01 T01630127  RH  080%=      5-min Rain = 0
KTAS 240736Z 17008KT 16/13 A2987 RMK A01 T01610128  RH  081%=      5-min Rain = 0
KTAS 240737Z 17008KT 16/13 A2987 RMK A01 T01600128  RH  081%=      5-min Rain = 0
KTAS 240738Z 16007KT 16/13 A2987 RMK A01 T01590128  RH  082%=      5-min Rain = 0
KTAS 240739Z 14007KT 16/13 A2987 RMK A01 T01590129  RH  082%=      5-min Rain = 0
KTAS 240740Z 13010KT 16/13 A2987 RMK A01 T01580128  RH  082%=      5-min Rain = 0
KTAS 240741Z 12009KT 16/13 A2987 RMK A01 T01600129  RH  082%=      5-min Rain = 0
KTAS 240742Z 12008KT 16/13 A2987 RMK A01 T01600129  RH  082%=      5-min Rain = 0
KTAS 240743Z 13009KT 16/13 A2987 RMK A01 T01590129  RH  082%=      5-min Rain = 0
KTAS 240744Z 13010KT 16/13 A2987 RMK A01 T01590128  RH  082%=      5-min Rain = 0
KTAS 240745Z 13010KT 16/13 A2987 RMK A01 T01600127  RH  081%=      5-min Rain = 0
KTAS 240746Z 13008KT 16/13 A2987 RMK A01 T01610127  RH  080%=      5-min Rain = 0
KTAS 240747Z 13009KT 16/13 A2987 RMK A01 T01610127  RH  080%=      5-min Rain = 0
KTAS 240748Z 13010KT 16/13 A2987 RMK A01 T01610127  RH  081%=      5-min Rain = 0
KTAS 240749Z 13009KT 16/13 A2987 RMK A01 T01610128  RH  081%=      5-min Rain = 0
KTAS 240750Z 14010KT 16/13 A2987 RMK A01 T01610128  RH  081%=      5-min Rain = 0
KTAS 240751Z 14010KT 16/13 A2987 RMK A01 T01610128  RH  081%=      5-min Rain = 0
KTAS 240752Z 15010KT 16/13 A2987 RMK A01 T01610128  RH  080%=      5-min Rain = 0
KTAS 240753Z 18006KT 16/13 A2987 RMK A01 T01620128  RH  080%=      5-min Rain = 0
KTAS 240754Z 18006KT 16/13 A2987 RMK A01 T01610128  RH  081%=      5-min Rain = 0
KTAS 240755Z 17006KT 16/13 A2987 RMK A01 T01600129  RH  082%=      5-min Rain = 0
KTAS 240756Z 16007KT 16/13 A2987 RMK A01 T01590129  RH  082%=      5-min Rain = 0
KTAS 240757Z 14007KT 16/13 A2987 RMK A01 T01590129  RH  083%=      5-min Rain = 0
KTAS 240758Z 13008KT 16/13 A2987 RMK A01 T01590129  RH  083%=      5-min Rain = 0
KTAS 240759Z 13008KT 16/13 A2986 RMK A01 T01600129  RH  082%=      5-min Rain = 0
KTAS 240800Z 13007KT 16/13 A2987 RMK A01 T01600129  RH  082%=      5-min Rain = 0
KTAS 240801Z 13009KT 16/13 A2987 RMK A01 T01600129  RH  082%=      5-min Rain = 0
KTAS 240802Z 14007KT 16/13 A2987 RMK A01 T01600129  RH  082%=      5-min Rain = 0
KTAS 240803Z 13009KT 16/13 A2986 RMK A01 T01600127  RH  081%=      5-min Rain = 0
KTAS 240804Z 13009KT 16/13 A2986 RMK A01 T01620125  RH  079%=      5-min Rain = 0
KTAS 240805Z 13010KT 16/13 A2986 RMK A01 T01630126  RH  078%=      5-min Rain = 0
KTAS 240806Z 14010KT 16/13 A2986 RMK A01 T01630126  RH  079%=      5-min Rain = 0
KTAS 240807Z 14010KT 16/13 A2986 RMK A01 T01630127  RH  079%=      5-min Rain = 0
KTAS 240808Z 14009KT 16/13 A2986 RMK A01 T01630126  RH  079%=      5-min Rain = 0
KTAS 240809Z 14009KT 16/13 A2986 RMK A01 T01630126  RH  078%=      5-min Rain = 0
KTAS 240810Z 15006KT 16/13 A2986 RMK A01 T01640125  RH  078%=      5-min Rain = 0
KTAS 240811Z 14008KT 16/13 A2986 RMK A01 T01640125  RH  077%=      5-min Rain = 0
KTAS 240812Z 13008KT 17/12 A2986 RMK A01 T01650124  RH  077%=      5-min Rain = 0
KTAS 240813Z 15007KT 17/12 A2986 RMK A01 T01660124  RH  077%=      5-min Rain = 0
KTAS 240814Z 16006KT 17/13 A2986 RMK A01 T01650125  RH  077%=      5-min Rain = 0
KTAS 240815Z 14005KT 16/13 A2986 RMK A01 T01640126  RH  078%=      5-min Rain = 0
KTAS 240816Z 15005KT 16/13 A2986 RMK A01 T01620126  RH  079%=      5-min Rain = 0
KTAS 240817Z 15006KT 16/13 A2986 RMK A01 T01610126  RH  080%=      5-min Rain = 0
KTAS 240818Z 14006KT 16/13 A2986 RMK A01 T01610125  RH  080%=      5-min Rain = 0
KTAS 240819Z 14006KT 16/13 A2986 RMK A01 T01610125  RH  079%=      5-min Rain = 0
KTAS 240820Z 15005KT 16/12 A2986 RMK A01 T01620124  RH  078%=      5-min Rain = 0
KTAS 240821Z 14005KT 16/12 A2986 RMK A01 T01630124  RH  078%=      5-min Rain = 0
KTAS 240822Z 14006KT 16/12 A2986 RMK A01 T01640123  RH  077%=      5-min Rain = 0
KTAS 240823Z 15005KT 17/12 A2986 RMK A01 T01650123  RH  076%=      5-min Rain = 0
KTAS 240824Z 15005KT 17/12 A2986 RMK A01 T01650123  RH  077%=      5-min Rain = 0
KTAS 240825Z 16006KT 16/13 A2986 RMK A01 T01640125  RH  078%=      5-min Rain = 0
KTAS 240826Z 15006KT 16/13 A2986 RMK A01 T01630125  RH  078%=      5-min Rain = 0
KTAS 240827Z 15006KT 16/13 A2986 RMK A01 T01620125  RH  079%=      5-min Rain = 0
KTAS 240828Z 14007KT 16/13 A2986 RMK A01 T01620125  RH  079%=      5-min Rain = 0
KTAS 240829Z 15006KT 16/13 A2986 RMK A01 T01620125  RH  079%=      5-min Rain = 0
KTAS 240830Z 15007KT 16/13 A2986 RMK A01 T01620125  RH  079%=      5-min Rain = 0
KTAS 240831Z 14007KT 16/13 A2986 RMK A01 T01610125  RH  079%=      5-min Rain = 0
KTAS 240832Z 14008KT 16/13 A2986 RMK A01 T01610125  RH  079%=      5-min Rain = 0
KTAS 240833Z 14008KT 16/13 A2986 RMK A01 T01610125  RH  079%=      5-min Rain = 0
KTAS 240834Z 14009KT 16/13 A2986 RMK A01 T01620125  RH  079%=      5-min Rain = 0
KTAS 240835Z 14009KT 16/13 A2986 RMK A01 T01620125  RH  079%=      5-min Rain = 0
KTAS 240836Z 14010KT 16/13 A2986 RMK A01 T01610126  RH  079%=      5-min Rain = 0
KTAS 240837Z 14009KT 16/13 A2986 RMK A01 T01610126  RH  079%=      5-min Rain = 0
KTAS 240838Z 13009KT 16/13 A2986 RMK A01 T01610126  RH  079%=      5-min Rain = 0
KTAS 240839Z 13010KT 16/13 A2986 RMK A01 T01610125  RH  079%=      5-min Rain = 0
KTAS 240840Z 13009KT 16/13 A2986 RMK A01 T01620125  RH  078%=      5-min Rain = 0
KTAS 240841Z 13011KT 16/13 A2986 RMK A01 T01630125  RH  078%=      5-min Rain = 0
KTAS 240842Z 14010KT 16/13 A2986 RMK A01 T01630125  RH  078%=      5-min Rain = 0
KTAS 240843Z 13010KT 16/13 A2986 RMK A01 T01630126  RH  079%=      5-min Rain = 0
KTAS 240844Z 14009KT 16/13 A2986 RMK A01 T01620126  RH  079%=      5-min Rain = 0
KTAS 240845Z 14009KT 16/13 A2986 RMK A01 T01620125  RH  079%=      5-min Rain = 0
KTAS 240846Z 14009KT 16/13 A2986 RMK A01 T01630126  RH  079%=      5-min Rain = 0
KTAS 240847Z 14009KT 16/13 A2986 RMK A01 T01630126  RH  079%=      5-min Rain = 0
KTAS 240848Z 14010KT 16/13 A2986 RMK A01 T01630125  RH  078%=      5-min Rain = 0
KTAS 240849Z 14010KT 16/13 A2986 RMK A01 T01630125  RH  078%=      5-min Rain = 0
KTAS 240850Z 13010KT 16/13 A2986 RMK A01 T01630125  RH  078%=      5-min Rain = 0
KTAS 240851Z 13010KT 16/13 A2986 RMK A01 T01630125  RH  078%=      5-min Rain = 0
KTAS 240852Z 13010KT 16/13 A2986 RMK A01 T01630125  RH  078%=      5-min Rain = 0
KTAS 240853Z 13010KT 16/13 A2986 RMK A01 T01630125  RH  078%=      5-min Rain = 0
KTAS 240854Z 14011KT 16/13 A2985 RMK A01 T01630125  RH  078%=      5-min Rain = 0
KTAS 240855Z 13011KT 16/13 A2986 RMK A01 T01630125  RH  078%=      5-min Rain = 0
KTAS 240856Z 14012KT 16/12 A2986 RMK A01 T01630124  RH  078%=      5-min Rain = 0
KTAS 240857Z 14011KT 16/12 A2986 RMK A01 T01630124  RH  077%=      5-min Rain = 0
KTAS 240858Z 13011KT 16/12 A2986 RMK A01 T01630124  RH  077%=      5-min Rain = 0
KTAS 240859Z 14011KT 16/12 A2985 RMK A01 T01630124  RH  077%=      5-min Rain = 0
KTAS 240900Z 13010KT 16/12 A2985 RMK A01 T01630124  RH  077%=      5-min Rain = 0
KTAS 240901Z 14011KT 16/12 A2985 RMK A01 T01630124  RH  078%=      5-min Rain = 0
KTAS 240902Z 14011KT 16/12 A2985 RMK A01 T01630123  RH  077%=      5-min Rain = 0
KTAS 240903Z 13011KT 16/12 A2985 RMK A01 T01640123  RH  077%=      5-min Rain = 0
KTAS 240904Z 13010KT 16/12 A2985 RMK A01 T01630123  RH  077%=      5-min Rain = 0
KTAS 240905Z 13010KT 16/12 A2985 RMK A01 T01630124  RH  077%=      5-min Rain = 0
KTAS 240906Z 13011KT 16/12 A2985 RMK A01 T01630124  RH  077%=      5-min Rain = 0
KTAS 240907Z 13010KT 16/12 A2985 RMK A01 T01630124  RH  077%=      5-min Rain = 0
KTAS 240908Z 14010KT 16/12 A2985 RMK A01 T01630123  RH  077%=      5-min Rain = 0
KTAS 240909Z 13010KT 16/12 A2985 RMK A01 T01630123  RH  077%=      5-min Rain = 0
KTAS 240910Z 14010KT 16/12 A2985 RMK A01 T01630123  RH  077%=      5-min Rain = 0
KTAS 240911Z 13010KT 16/12 A2985 RMK A01 T01630124  RH  077%=      5-min Rain = 0
KTAS 240912Z 13009KT 16/12 A2985 RMK A01 T01630123  RH  077%=      5-min Rain = 0
KTAS 240913Z 14010KT 16/12 A2985 RMK A01 T01630123  RH  077%=      5-min Rain = 0
KTAS 240914Z 14010KT 16/12 A2985 RMK A01 T01630123  RH  077%=      5-min Rain = 0
KTAS 240915Z 14010KT 16/12 A2985 RMK A01 T01630123  RH  077%=      5-min Rain = 0
KTAS 240916Z 13009KT 16/12 A2985 RMK A01 T01630123  RH  077%=      5-min Rain = 0
KTAS 240917Z 14010KT 16/12 A2986 RMK A01 T01630123  RH  077%=      5-min Rain = 0
KTAS 240918Z 14010KT 16/12 A2986 RMK A01 T01630122  RH  077%=      5-min Rain = 0
KTAS 240919Z 14012KT 16/12 A2986 RMK A01 T01640122  RH  076%=      5-min Rain = 0
KTAS 240920Z 14011KT 17/12 A2986 RMK A01 T01650122  RH  076%=      5-min Rain = 0
KTAS 240921Z 14010KT 17/12 A2986 RMK A01 T01650122  RH  076%=      5-min Rain = 0
KTAS 240922Z 14012KT 16/12 A2986 RMK A01 T01640122  RH  076%=      5-min Rain = 0
KTAS 240923Z 14011KT 16/12 A2986 RMK A01 T01640123  RH  076%=      5-min Rain = 0
KTAS 240924Z 14011KT 16/12 A2986 RMK A01 T01640123  RH  077%=      5-min Rain = 0
KTAS 240925Z 14010KT 16/12 A2986 RMK A01 T01630123  RH  077%=      5-min Rain = 0
KTAS 240926Z 14011KT 16/12 A2986 RMK A01 T01630123  RH  077%=      5-min Rain = 0
KTAS 240927Z 14011KT 16/12 A2986 RMK A01 T01630122  RH  077%=      5-min Rain = 0
KTAS 240928Z 14011KT 16/12 A2986 RMK A01 T01640122  RH  076%=      5-min Rain = 0
KTAS 240929Z 14010KT 17/12 A2986 RMK A01 T01650122  RH  076%=      5-min Rain = 0
KTAS 240930Z 14010KT 16/12 A2986 RMK A01 T01640122  RH  076%=      5-min Rain = 0
KTAS 240931Z 14011KT 16/12 A2986 RMK A01 T01640122  RH  076%=      5-min Rain = 0
KTAS 240932Z 14011KT 16/12 A2986 RMK A01 T01640122  RH  076%=      5-min Rain = 0
KTAS 240933Z 14011KT 16/12 A2986 RMK A01 T01640122  RH  076%=      5-min Rain = 0
KTAS 240934Z 14010KT 16/12 A2986 RMK A01 T01640123  RH  077%=      5-min Rain = 0
KTAS 240935Z 14010KT 16/12 A2986 RMK A01 T01630123  RH  077%=      5-min Rain = 0
KTAS 240936Z 14010KT 16/12 A2986 RMK A01 T01620123  RH  077%=      5-min Rain = 0
KTAS 240937Z 14010KT 16/12 A2986 RMK A01 T01620123  RH  077%=      5-min Rain = 0
KTAS 240938Z 14009KT 16/12 A2986 RMK A01 T01620123  RH  078%=      5-min Rain = 0
KTAS 240939Z 14010KT 16/12 A2986 RMK A01 T01620123  RH  078%=      5-min Rain = 0
KTAS 240940Z 14010KT 16/12 A2986 RMK A01 T01620123  RH  077%=      5-min Rain = 0
KTAS 240941Z 14011KT 16/12 A2986 RMK A01 T01620123  RH  078%=      5-min Rain = 0
KTAS 240942Z 14011KT 16/12 A2986 RMK A01 T01610123  RH  078%=      5-min Rain = 0
KTAS 240943Z 14010KT 16/12 A2986 RMK A01 T01610123  RH  078%=      5-min Rain = 0
KTAS 240944Z 14010KT 16/12 A2986 RMK A01 T01610123  RH  078%=      5-min Rain = 0
KTAS 240945Z 14010KT 16/12 A2986 RMK A01 T01610123  RH  078%=      5-min Rain = 0
KTAS 240946Z 14010KT 16/12 A2986 RMK A01 T01610123  RH  078%=      5-min Rain = 0
KTAS 240947Z 14009KT 16/12 A2986 RMK A01 T01620123  RH  078%=      5-min Rain = 0
KTAS 240948Z 14009KT 16/12 A2986 RMK A01 T01620123  RH  078%=      5-min Rain = 0
KTAS 240949Z 15010KT 16/12 A2986 RMK A01 T01610123  RH  078%=      5-min Rain = 0
KTAS 240950Z 14010KT 16/12 A2986 RMK A01 T01610123  RH  078%=      5-min Rain = 0
KTAS 240951Z 14010KT 16/12 A2986 RMK A01 T01610123  RH  078%=      5-min Rain = 0
KTAS 240952Z 14009KT 16/12 A2986 RMK A01 T01610124  RH  078%=      5-min Rain = 0
KTAS 240953Z 14010KT 16/12 A2986 RMK A01 T01610123  RH  078%=      5-min Rain = 0
KTAS 240954Z 14011KT 16/12 A2986 RMK A01 T01610123  RH  078%=      5-min Rain = 0
KTAS 240955Z 14010KT 16/12 A2986 RMK A01 T01610123  RH  078%=      5-min Rain = 0
KTAS 240956Z 15009KT 16/12 A2986 RMK A01 T01610123  RH  078%=      5-min Rain = 0
KTAS 240957Z 15010KT 16/12 A2986 RMK A01 T01610123  RH  079%=      5-min Rain = 0
KTAS 240958Z 15009KT 16/12 A2986 RMK A01 T01610123  RH  078%=      5-min Rain = 0
KTAS 240959Z 15010KT 16/12 A2985 RMK A01 T01610123  RH  078%=      5-min Rain = 0
KTAS 241000Z 15010KT 16/12 A2985 RMK A01 T01610123  RH  078%=      5-min Rain = 0
KTAS 241001Z 15011KT 16/12 A2985 RMK A01 T01620123  RH  077%=      5-min Rain = 0
KTAS 241002Z 15011KT 16/12 A2985 RMK A01 T01630123  RH  077%=      5-min Rain = 0
KTAS 241003Z 16010KT 16/12 A2985 RMK A01 T01630123  RH  077%=      5-min Rain = 0
KTAS 241004Z 15011KT 16/12 A2985 RMK A01 T01630123  RH  077%=      5-min Rain = 0
KTAS 241005Z 15011KT 16/12 A2985 RMK A01 T01630123  RH  077%=      5-min Rain = 0
KTAS 241006Z 15010KT 16/12 A2985 RMK A01 T01620123  RH  078%=      5-min Rain = 0
KTAS 241007Z 15009KT 16/12 A2985 RMK A01 T01620123  RH  078%=      5-min Rain = 0
KTAS 241008Z 14009KT 16/12 A2985 RMK A01 T01620124  RH  078%=      5-min Rain = 0
KTAS 241009Z 15009KT 16/12 A2985 RMK A01 T01610124  RH  078%=      5-min Rain = 0
KTAS 241010Z 15011KT 16/12 A2985 RMK A01 T01610124  RH  078%=      5-min Rain = 0
KTAS 241011Z 15010KT 16/12 A2985 RMK A01 T01630123  RH  077%=      5-min Rain = 0
KTAS 241012Z 15009KT 16/12 A2985 RMK A01 T01630123  RH  077%=      5-min Rain = 0
KTAS 241013Z 15010KT 16/12 A2985 RMK A01 T01630123  RH  077%=      5-min Rain = 0
KTAS 241014Z 15011KT 16/12 A2986 RMK A01 T01630123  RH  077%=      5-min Rain = 0
KTAS 241015Z 15010KT 16/12 A2985 RMK A01 T01640124  RH  077%=      5-min Rain = 0
KTAS 241016Z 15010KT 17/12 A2985 RMK A01 T01650123  RH  077%=      5-min Rain = 0
KTAS 241017Z 15010KT 16/12 A2985 RMK A01 T01640124  RH  077%=      5-min Rain = 0
KTAS 241018Z 15009KT 16/12 A2985 RMK A01 T01640124  RH  077%=      5-min Rain = 0
KTAS 241019Z 15010KT 16/12 A2985 RMK A01 T01640124  RH  077%=      5-min Rain = 0
KTAS 241020Z 15010KT 16/12 A2985 RMK A01 T01640124  RH  077%=      5-min Rain = 0
KTAS 241021Z 15011KT 17/12 A2985 RMK A01 T01650124  RH  076%=      5-min Rain = 0
KTAS 241022Z 16011KT 17/12 A2985 RMK A01 T01660123  RH  076%=      5-min Rain = 0
KTAS 241023Z 16009KT 17/12 A2985 RMK A01 T01650123  RH  076%=      5-min Rain = 0
KTAS 241024Z 16010KT 16/12 A2985 RMK A01 T01640124  RH  077%=      5-min Rain = 0
KTAS 241025Z 16011KT 16/12 A2985 RMK A01 T01630124  RH  078%=      5-min Rain = 0
KTAS 241026Z 15010KT 16/12 A2985 RMK A01 T01620124  RH  078%=      5-min Rain = 0
KTAS 241027Z 16009KT 16/12 A2985 RMK A01 T01610124  RH  079%=      5-min Rain = 0
KTAS 241028Z 16009KT 16/12 A2985 RMK A01 T01610124  RH  079%=      5-min Rain = 0
KTAS 241029Z 16010KT 16/12 A2985 RMK A01 T01600124  RH  079%=      5-min Rain = 0
KTAS 241030Z 15010KT 16/12 A2985 RMK A01 T01610124  RH  079%=      5-min Rain = 0
KTAS 241031Z 15010KT 16/12 A2985 RMK A01 T01630124  RH  078%=      5-min Rain = 0
KTAS 241032Z 16010KT 16/12 A2985 RMK A01 T01630124  RH  078%=      5-min Rain = 0
KTAS 241033Z 16010KT 16/13 A2986 RMK A01 T01630125  RH  078%=      5-min Rain = 0
KTAS 241034Z 16009KT 16/13 A2986 RMK A01 T01630125  RH  078%=      5-min Rain = 0
KTAS 241035Z 16009KT 16/13 A2986 RMK A01 T01630125  RH  078%=      5-min Rain = 0
KTAS 241036Z 16009KT 16/13 A2985 RMK A01 T01630125  RH  078%=      5-min Rain = 0
KTAS 241037Z 16008KT 16/12 A2985 RMK A01 T01620124  RH  078%=      5-min Rain = 0
KTAS 241038Z 16008KT 16/13 A2985 RMK A01 T01620125  RH  078%=      5-min Rain = 0
KTAS 241039Z 16009KT 16/13 A2985 RMK A01 T01620125  RH  079%=      5-min Rain = 0
KTAS 241040Z 17008KT 16/13 A2985 RMK A01 T01620125  RH  079%=      5-min Rain = 0
KTAS 241041Z 16009KT 16/13 A2985 RMK A01 T01610125  RH  079%=      5-min Rain = 0
KTAS 241042Z 16009KT 16/13 A2985 RMK A01 T01610126  RH  080%=      5-min Rain = 0
KTAS 241043Z 16008KT 16/13 A2985 RMK A01 T01600126  RH  080%=      5-min Rain = 0
KTAS 241044Z 16009KT 16/13 A2985 RMK A01 T01600126  RH  080%=      5-min Rain = 0
KTAS 241045Z 16010KT 16/13 A2985 RMK A01 T01590126  RH  081%=      5-min Rain = 0
KTAS 241046Z 16010KT 16/13 A2985 RMK A01 T01590126  RH  080%=      5-min Rain = 0
KTAS 241047Z 16009KT 16/13 A2985 RMK A01 T01590125  RH  080%=      5-min Rain = 0
KTAS 241048Z 16010KT 16/13 A2985 RMK A01 T01590125  RH  080%=      5-min Rain = 0
KTAS 241049Z 16010KT 16/13 A2985 RMK A01 T01590126  RH  081%=      5-min Rain = 0
KTAS 241050Z 16010KT 16/13 A2985 RMK A01 T01590126  RH  081%=      5-min Rain = 0
KTAS 241051Z 17009KT 16/13 A2985 RMK A01 T01590126  RH  081%=      5-min Rain = 0
KTAS 241052Z 17009KT 16/13 A2985 RMK A01 T01590126  RH  081%=      5-min Rain = 0
KTAS 241053Z 16009KT 16/13 A2985 RMK A01 T01580126  RH  081%=      5-min Rain = 0
KTAS 241054Z 17009KT 16/13 A2985 RMK A01 T01570126  RH  082%=      5-min Rain = 0
KTAS 241055Z 16009KT 16/13 A2985 RMK A01 T01570126  RH  082%=      5-min Rain = 0
KTAS 241056Z 16009G14KT 16/13 A2985 RMK A01 T01570126  RH  082%=      5-min Rain = 0
KTAS 241057Z 17009KT 16/13 A2985 RMK A01 T01570126  RH  082%=      5-min Rain = 0
KTAS 241058Z 17009KT 16/13 A2985 RMK A01 T01570126  RH  082%=      5-min Rain = 0
KTAS 241059Z 17009KT 16/13 A2985 RMK A01 T01570126  RH  082%=      5-min Rain = 0
KTAS 241100Z 17009KT 16/13 A2985 RMK A01 T01570126  RH  082%=      5-min Rain = 0
KTAS 241101Z 17009KT 16/13 A2985 RMK A01 T01570126  RH  082%=      5-min Rain = 0
KTAS 241102Z 17009KT 16/13 A2985 RMK A01 T01580126  RH  082%=      5-min Rain = 0
KTAS 241103Z 17009KT 16/13 A2985 RMK A01 T01580126  RH  081%=      5-min Rain = 0
KTAS 241104Z 16009KT 16/13 A2985 RMK A01 T01580126  RH  082%=      5-min Rain = 0
KTAS 241105Z 17009KT 16/13 A2985 RMK A01 T01570127  RH  082%=      5-min Rain = 0
KTAS 241106Z 17009KT 16/13 A2985 RMK A01 T01570127  RH  082%=      5-min Rain = 0
KTAS 241107Z 17009KT 16/13 A2985 RMK A01 T01570126  RH  082%=      5-min Rain = 0
KTAS 241108Z 18008KT 16/13 A2985 RMK A01 T01570126  RH  082%=      5-min Rain = 0
KTAS 241109Z 17009KT 16/13 A2985 RMK A01 T01570127  RH  082%=      5-min Rain = 0
KTAS 241110Z 18009KT 16/13 A2985 RMK A01 T01570127  RH  082%=      5-min Rain = 0
KTAS 241111Z 18009KT 16/13 A2985 RMK A01 T01560127  RH  082%=      5-min Rain = 0
KTAS 241112Z 18010KT 16/13 A2985 RMK A01 T01560127  RH  083%=      5-min Rain = 0
KTAS 241113Z 18010KT 16/13 A2985 RMK A01 T01560127  RH  083%=      5-min Rain = 0
KTAS 241114Z 18011KT 16/13 A2985 RMK A01 T01570127  RH  082%=      5-min Rain = 0
KTAS 241115Z 18010KT 16/13 A2985 RMK A01 T01570127  RH  082%=      5-min Rain = 0
KTAS 241116Z 18010KT 16/13 A2985 RMK A01 T01570127  RH  082%=      5-min Rain = 0
KTAS 241117Z 18010KT 16/13 A2985 RMK A01 T01560127  RH  083%=      5-min Rain = 0
KTAS 241118Z 18009KT 16/13 A2985 RMK A01 T01560127  RH  083%=      5-min Rain = 0
KTAS 241119Z 18009KT 16/13 A2985 RMK A01 T01560127  RH  083%=      5-min Rain = 0
KTAS 241120Z 18009KT 16/13 A2985 RMK A01 T01560127  RH  083%=      5-min Rain = 0
KTAS 241121Z 18008KT 16/13 A2985 RMK A01 T01550127  RH  083%=      5-min Rain = 0
KTAS 241122Z 18009KT 16/13 A2985 RMK A01 T01550127  RH  083%=      5-min Rain = 0
KTAS 241123Z 18009KT 16/13 A2985 RMK A01 T01550127  RH  084%=      5-min Rain = 0
KTAS 241124Z 18008KT 16/13 A2985 RMK A01 T01550127  RH  084%=      5-min Rain = 0
KTAS 241125Z 18008KT 15/13 A2985 RMK A01 T01540127  RH  084%=      5-min Rain = 0
KTAS 241126Z 18009KT 15/13 A2985 RMK A01 T01540127  RH  084%=      5-min Rain = 0
KTAS 241127Z 18009KT 16/13 A2985 RMK A01 T01550127  RH  084%=      5-min Rain = 0
KTAS 241128Z 18009KT 16/13 A2985 RMK A01 T01550127  RH  083%=      5-min Rain = 0
KTAS 241129Z 18010KT 16/13 A2985 RMK A01 T01550127  RH  083%=      5-min Rain = 0
KTAS 241130Z 18010KT 16/13 A2985 RMK A01 T01550127  RH  084%=      5-min Rain = 0
KTAS 241131Z 18009KT 16/13 A2985 RMK A01 T01550127  RH  083%=      5-min Rain = 0
KTAS 241132Z 18009KT 16/13 A2985 RMK A01 T01550127  RH  083%=      5-min Rain = 0
KTAS 241133Z 18009KT 16/13 A2985 RMK A01 T01550127  RH  084%=      5-min Rain = 0
KTAS 241134Z 18009KT 16/13 A2985 RMK A01 T01550127  RH  084%=      5-min Rain = 0
KTAS 241135Z 18008KT 16/13 A2985 RMK A01 T01550128  RH  084%=      5-min Rain = 0
KTAS 241136Z 19008KT 16/13 A2985 RMK A01 T01550127  RH  084%=      5-min Rain = 0
KTAS 241137Z 18008KT 15/13 A2985 RMK A01 T01540127  RH  084%=      5-min Rain = 0
KTAS 241138Z 18009KT 15/13 A2985 RMK A01 T01540128  RH  084%=      5-min Rain = 0
KTAS 241139Z 18009KT 15/13 A2985 RMK A01 T01540128  RH  084%=      5-min Rain = 0
KTAS 241140Z 18010KT 15/13 A2985 RMK A01 T01540128  RH  084%=      5-min Rain = 0
KTAS 241141Z 18009KT 15/13 A2985 RMK A01 T01540128  RH  084%=      5-min Rain = 0
KTAS 241142Z 18009KT 15/13 A2985 RMK A01 T01540128  RH  084%=      5-min Rain = 0
KTAS 241143Z 18010KT 15/13 A2985 RMK A01 T01540128  RH  084%=      5-min Rain = 0
KTAS 241144Z 18009KT 15/13 A2985 RMK A01 T01540128  RH  084%=      5-min Rain = 0
KTAS 241145Z 18010KT 16/13 A2985 RMK A01 T01550128  RH  084%=      5-min Rain = 0
KTAS 241146Z 18010KT 16/13 A2985 RMK A01 T01550128  RH  084%=      5-min Rain = 0
KTAS 241147Z 18010KT 16/13 A2985 RMK A01 T01550128  RH  084%=      5-min Rain = 0
KTAS 241148Z 18009KT 16/13 A2985 RMK A01 T01550128  RH  084%=      5-min Rain = 0
KTAS 241149Z 18010KT 16/13 A2985 RMK A01 T01550128  RH  084%=      5-min Rain = 0
KTAS 241150Z 18010KT 16/13 A2985 RMK A01 T01550128  RH  083%=      5-min Rain = 0
KTAS 241151Z 18009KT 16/13 A2985 RMK A01 T01550127  RH  083%=      5-min Rain = 0
KTAS 241152Z 18010KT 16/13 A2985 RMK A01 T01550128  RH  083%=      5-min Rain = 0
KTAS 241153Z 18009KT 16/13 A2985 RMK A01 T01550128  RH  084%=      5-min Rain = 0
KTAS 241154Z 17010KT 16/13 A2985 RMK A01 T01560128  RH  084%=      5-min Rain = 0
KTAS 241155Z 17011KT 16/13 A2985 RMK A01 T01560128  RH  083%=      5-min Rain = 0
KTAS 241156Z 17010KT 16/13 A2985 RMK A01 T01570128  RH  083%=      5-min Rain = 0
KTAS 241157Z 17010KT 16/13 A2985 RMK A01 T01570128  RH  083%=      5-min Rain = 0
KTAS 241158Z 17009KT 16/13 A2985 RMK A01 T01570128  RH  083%=      5-min Rain = 0
KTAS 241159Z 17009KT 16/13 A2985 RMK A01 T01570128  RH  083%=      5-min Rain = 0
KTAS 241200Z 17011KT 16/13 A2985 RMK A01 T01560128  RH  084%=      5-min Rain = 0
KTAS 241201Z 17010KT 16/13 A2985 RMK A01 T01560128  RH  084%=      5-min Rain = 0
KTAS 241202Z 17011KT 16/13 A2985 RMK A01 T01570129  RH  083%=      5-min Rain = 0
KTAS 241203Z 17010KT 16/13 A2985 RMK A01 T01570129  RH  083%=      5-min Rain = 0
KTAS 241204Z 17009KT 16/13 A2985 RMK A01 T01570129  RH  083%=      5-min Rain = 0
KTAS 241205Z 17009KT 16/13 A2985 RMK A01 T01570128  RH  083%=      5-min Rain = 0
KTAS 241206Z 16010KT 16/13 A2985 RMK A01 T01570129  RH  083%=      5-min Rain = 0
KTAS 241207Z 16009KT 16/13 A2985 RMK A01 T01580129  RH  083%=      5-min Rain = 0
KTAS 241208Z 16008KT 16/13 A2985 RMK A01 T01580129  RH  083%=      5-min Rain = 0
KTAS 241209Z 16007KT 16/13 A2985 RMK A01 T01580129  RH  083%=      5-min Rain = 0
KTAS 241210Z 16007KT 16/13 A2985 RMK A01 T01580129  RH  083%=      5-min Rain = 0
KTAS 241211Z 16008KT 16/13 A2985 RMK A01 T01580129  RH  083%=      5-min Rain = 0
KTAS 241212Z 16009KT 16/13 A2985 RMK A01 T01580129  RH  083%=      5-min Rain = 0
KTAS 241213Z 17009KT 16/13 A2985 RMK A01 T01590129  RH  083%=      5-min Rain = 0
KTAS 241214Z 16009KT 16/13 A2985 RMK A01 T01590129  RH  082%=      5-min Rain = 0
KTAS 241215Z 16009KT 16/13 A2985 RMK A01 T01590129  RH  082%=      5-min Rain = 0
KTAS 241216Z 16009KT 16/13 A2985 RMK A01 T01600129  RH  082%=      5-min Rain = 0
KTAS 241217Z 16008KT 16/13 A2985 RMK A01 T01600129  RH  082%=      5-min Rain = 0
KTAS 241218Z 16007KT 16/13 A2985 RMK A01 T01610129  RH  082%=      5-min Rain = 0
KTAS 241219Z 17009KT 16/13 A2985 RMK A01 T01610129  RH  081%=      5-min Rain = 0
KTAS 241220Z 16009KT 16/13 A2985 RMK A01 T01620129  RH  081%=      5-min Rain = 0
KTAS 241221Z 16008KT 16/13 A2985 RMK A01 T01630129  RH  080%=      5-min Rain = 0
KTAS 241222Z 16010KT 16/13 A2985 RMK A01 T01640129  RH  080%=      5-min Rain = 0
KTAS 241223Z 16010KT 17/13 A2986 RMK A01 T01650128  RH  079%=      5-min Rain = 0
KTAS 241224Z 16010KT 17/13 A2986 RMK A01 T01670127  RH  078%=      5-min Rain = 0
KTAS 241225Z 16008KT 17/13 A2986 RMK A01 T01680128  RH  077%=      5-min Rain = 0
KTAS 241226Z 16009KT 17/13 A2986 RMK A01 T01680128  RH  077%=      5-min Rain = 0
KTAS 241227Z 16008KT 17/13 A2986 RMK A01 T01690128  RH  077%=      5-min Rain = 0
KTAS 241228Z 15007KT 17/13 A2986 RMK A01 T01690128  RH  077%=      5-min Rain = 0
KTAS 241229Z 16007KT 17/13 A2986 RMK A01 T01700128  RH  076%=      5-min Rain = 0
KTAS 241230Z 16008KT 17/13 A2986 RMK A01 T01710128  RH  076%=      5-min Rain = 0
KTAS 241231Z 16008KT 17/13 A2986 RMK A01 T01710129  RH  076%=      5-min Rain = 0
KTAS 241232Z 16006KT 17/13 A2986 RMK A01 T01710129  RH  076%=      5-min Rain = 0
KTAS 241233Z 16006KT 17/13 A2986 RMK A01 T01720129  RH  076%=      5-min Rain = 0
KTAS 241234Z 16008KT 17/13 A2986 RMK A01 T01730130  RH  076%=      5-min Rain = 0
KTAS 241235Z 16008KT 17/13 A2986 RMK A01 T01730130  RH  076%=      5-min Rain = 0
KTAS 241236Z 16008KT 17/13 A2986 RMK A01 T01730130  RH  076%=      5-min Rain = 0
KTAS 241237Z 16008KT 17/13 A2986 RMK A01 T01730130  RH  076%=      5-min Rain = 0
KTAS 241238Z 16007KT 17/13 A2986 RMK A01 T01740130  RH  075%=      5-min Rain = 0
KTAS 241239Z 16006KT 17/13 A2986 RMK A01 T01740131  RH  075%=      5-min Rain = 0
KTAS 241240Z 16007KT 18/13 A2987 RMK A01 T01750131  RH  075%=      5-min Rain = 0
KTAS 241241Z 16007KT 18/13 A2987 RMK A01 T01750130  RH  075%=      5-min Rain = 0
KTAS 241242Z 16007KT 18/13 A2987 RMK A01 T01760130  RH  074%=      5-min Rain = 0
KTAS 241243Z 16007KT 18/13 A2987 RMK A01 T01760130  RH  074%=      5-min Rain = 0
KTAS 241244Z 16005KT 18/13 A2987 RMK A01 T01760131  RH  075%=      5-min Rain = 0
KTAS 241245Z 16004KT 18/13 A2987 RMK A01 T01770132  RH  075%=      5-min Rain = 0
KTAS 241246Z 16007KT 18/13 A2987 RMK A01 T01770131  RH  074%=      5-min Rain = 0
KTAS 241247Z 16006KT 18/13 A2987 RMK A01 T01780130  RH  074%=      5-min Rain = 0
KTAS 241248Z 16005KT 18/13 A2987 RMK A01 T01780131  RH  074%=      5-min Rain = 0
KTAS 241249Z 18007KT 18/13 A2987 RMK A01 T01780131  RH  074%=      5-min Rain = 0
KTAS 241250Z 16006KT 18/13 A2987 RMK A01 T01780129  RH  073%=      5-min Rain = 0
KTAS 241251Z 17005KT 18/13 A2987 RMK A01 T01790130  RH  073%=      5-min Rain = 0
KTAS 241252Z 17005KT 18/13 A2987 RMK A01 T01800130  RH  073%=      5-min Rain = 0
KTAS 241253Z 17006KT 18/13 A2987 RMK A01 T01800129  RH  072%=      5-min Rain = 0
KTAS 241254Z 16005KT 18/13 A2987 RMK A01 T01800130  RH  072%=      5-min Rain = 0
KTAS 241255Z 16006KT 18/13 A2987 RMK A01 T01810131  RH  073%=      5-min Rain = 0
KTAS 241256Z 16006KT 18/13 A2987 RMK A01 T01810131  RH  072%=      5-min Rain = 0
KTAS 241257Z 16007KT 18/13 A2987 RMK A01 T01810128  RH  071%=      5-min Rain = 0
KTAS 241258Z 16005KT 18/13 A2987 RMK A01 T01810129  RH  072%=      5-min Rain = 0
KTAS 241259Z 16006KT 18/13 A2987 RMK A01 T01820132  RH  072%=      5-min Rain = 0
KTAS 241300Z 16006KT 18/13 A2987 RMK A01 T01820132  RH  072%=      5-min Rain = 0
KTAS 241301Z 17006KT 18/13 A2987 RMK A01 T01820132  RH  072%=      5-min Rain = 0
KTAS 241302Z 16005KT 18/13 A2987 RMK A01 T01830133  RH  072%=      5-min Rain = 0
KTAS 241303Z 17006KT 18/13 A2987 RMK A01 T01830133  RH  072%=      5-min Rain = 0
KTAS 241304Z 17006KT 18/13 A2987 RMK A01 T01830132  RH  072%=      5-min Rain = 0
KTAS 241305Z 17006KT 18/13 A2987 RMK A01 T01820132  RH  072%=      5-min Rain = 0
KTAS 241306Z 16007KT 18/13 A2987 RMK A01 T01820132  RH  072%=      5-min Rain = 0
KTAS 241307Z 17007KT 18/13 A2987 RMK A01 T01830132  RH  072%=      5-min Rain = 0
KTAS 241308Z 17006KT 18/13 A2987 RMK A01 T01830132  RH  072%=      5-min Rain = 0
KTAS 241309Z 17005KT 18/13 A2987 RMK A01 T01830133  RH  072%=      5-min Rain = 0
KTAS 241310Z 16006KT 18/13 A2987 RMK A01 T01840134  RH  073%=      5-min Rain = 0
KTAS 241311Z 16005KT 19/13 A2987 RMK A01 T01850134  RH  072%=      5-min Rain = 0
KTAS 241312Z 16005KT 19/13 A2987 RMK A01 T01850134  RH  072%=      5-min Rain = 0
KTAS 241313Z 14004KT 19/14 A2987 RMK A01 T01860136  RH  072%=      5-min Rain = 0
KTAS 241314Z 14004KT 19/14 A2987 RMK A01 T01870135  RH  072%=      5-min Rain = 0
KTAS 241315Z 15004KT 19/14 A2987 RMK A01 T01890136  RH  072%=      5-min Rain = 0
KTAS 241316Z 14005KT 19/14 A2987 RMK A01 T01900137  RH  072%=      5-min Rain = 0
KTAS 241317Z 14007KT 19/13 A2987 RMK A01 T01900134  RH  070%=      5-min Rain = 0
KTAS 241318Z 15007KT 19/14 A2988 RMK A01 T01900136  RH  071%=      5-min Rain = 0
KTAS 241319Z 13007KT 19/14 A2988 RMK A01 T01900135  RH  070%=      5-min Rain = 0
KTAS 241320Z 14005KT 19/14 A2988 RMK A01 T01900136  RH  071%=      5-min Rain = 0
KTAS 241321Z 13006KT 19/14 A2988 RMK A01 T01910139  RH  072%=      5-min Rain = 0
KTAS 241322Z 14007KT 19/14 A2988 RMK A01 T01910139  RH  072%=      5-min Rain = 0
KTAS 241323Z 14008KT 19/14 A2988 RMK A01 T01910139  RH  072%=      5-min Rain = 0
KTAS 241324Z 13007KT 19/14 A2988 RMK A01 T01910139  RH  072%=      5-min Rain = 0
KTAS 241325Z 14007KT 19/14 A2988 RMK A01 T01910138  RH  071%=      5-min Rain = 0
KTAS 241326Z 14007KT 19/14 A2987 RMK A01 T01920140  RH  072%=      5-min Rain = 0
KTAS 241327Z 13008KT 19/14 A2987 RMK A01 T01920139  RH  071%=      5-min Rain = 0
KTAS 241328Z 14008KT 19/14 A2987 RMK A01 T01920138  RH  071%=      5-min Rain = 0
KTAS 241329Z 14007KT 19/14 A2987 RMK A01 T01920138  RH  071%=      5-min Rain = 0
KTAS 241330Z 14006KT 19/14 A2987 RMK A01 T01930139  RH  071%=      5-min Rain = 0
KTAS 241331Z 15007KT 19/14 A2987 RMK A01 T01930140  RH  071%=      5-min Rain = 0
KTAS 241332Z 15008KT 19/14 A2987 RMK A01 T01930138  RH  070%=      5-min Rain = 0
KTAS 241333Z 14007KT 19/14 A2987 RMK A01 T01940139  RH  070%=      5-min Rain = 0
KTAS 241334Z 16007KT 20/14 A2987 RMK A01 T01950141  RH  071%=      5-min Rain = 0
KTAS 241335Z 15008KT 20/14 A2987 RMK A01 T01950141  RH  071%=      5-min Rain = 0
KTAS 241336Z 15009KT 19/14 A2987 RMK A01 T01940138  RH  070%=      5-min Rain = 0
KTAS 241337Z 15010KT 20/14 A2987 RMK A01 T01950140  RH  070%=      5-min Rain = 0
KTAS 241338Z 16009KT 19/14 A2987 RMK A01 T01940138  RH  070%=      5-min Rain = 0
KTAS 241339Z 15008KT 19/14 A2987 RMK A01 T01940141  RH  071%=      5-min Rain = 0
KTAS 241340Z 16010KT 19/14 A2987 RMK A01 T01930138  RH  070%=      5-min Rain = 0
KTAS 241341Z 16008KT 19/14 A2987 RMK A01 T01930139  RH  071%=      5-min Rain = 0
KTAS 241342Z 16010KT 19/14 A2987 RMK A01 T01940139  RH  071%=      5-min Rain = 0
KTAS 241343Z 16009KT 19/14 A2987 RMK A01 T01940140  RH  071%=      5-min Rain = 0
KTAS 241344Z 16009KT 19/14 A2987 RMK A01 T01940141  RH  071%=      5-min Rain = 0
KTAS 241345Z 15008KT 19/14 A2987 RMK A01 T01930140  RH  071%=      5-min Rain = 0
KTAS 241346Z 16011KT 19/14 A2987 RMK A01 T01930139  RH  071%=      5-min Rain = 0
KTAS 241347Z 16013KT 19/14 A2987 RMK A01 T01910139  RH  071%=      5-min Rain = 0
KTAS 241348Z 16011KT 19/14 A2987 RMK A01 T01900139  RH  072%=      5-min Rain = 0
KTAS 241349Z 16011KT 19/14 A2987 RMK A01 T01900139  RH  072%=      5-min Rain = 0
KTAS 241350Z 16012KT 19/14 A2987 RMK A01 T01900139  RH  072%=      5-min Rain = 0
KTAS 241351Z 16012KT 19/14 A2987 RMK A01 T01890138  RH  072%=      5-min Rain = 0
KTAS 241352Z 16011KT 19/14 A2987 RMK A01 T01890139  RH  073%=      5-min Rain = 0
KTAS 241353Z 16012KT 19/14 A2987 RMK A01 T01890139  RH  073%=      5-min Rain = 0
KTAS 241354Z 15010KT 19/14 A2987 RMK A01 T01890140  RH  073%=      5-min Rain = 0
KTAS 241355Z 15011KT 19/14 A2987 RMK A01 T01890141  RH  074%=      5-min Rain = 0
KTAS 241356Z 16013KT 19/14 A2987 RMK A01 T01890141  RH  074%=      5-min Rain = 0
KTAS 241357Z 16014KT 19/14 A2987 RMK A01 T01890141  RH  074%=      5-min Rain = 0
KTAS 241358Z 16011KT 19/14 A2987 RMK A01 T01890142  RH  074%=      5-min Rain = 0
KTAS 241359Z 15011KT 19/14 A2987 RMK A01 T01900142  RH  074%=      5-min Rain = 0
KTAS 241400Z 15013KT 19/14 A2987 RMK A01 T01900142  RH  073%=      5-min Rain = 0
KTAS 241401Z 16012KT 19/14 A2987 RMK A01 T01900141  RH  073%=      5-min Rain = 0
KTAS 241402Z 16013KT 19/14 A2987 RMK A01 T01900142  RH  074%=      5-min Rain = 0
KTAS 241403Z 16012KT 19/14 A2987 RMK A01 T01900141  RH  073%=      5-min Rain = 0
KTAS 241404Z 15010KT 19/14 A2987 RMK A01 T01910143  RH  074%=      5-min Rain = 0
KTAS 241405Z 15009KT 19/15 A2987 RMK A01 T01920145  RH  074%=      5-min Rain = 0
KTAS 241406Z 15011KT 19/15 A2986 RMK A01 T01920146  RH  074%=      5-min Rain = 0
KTAS 241407Z 16013KT 19/14 A2986 RMK A01 T01930144  RH  073%=      5-min Rain = 0
KTAS 241408Z 15012KT 19/14 A2986 RMK A01 T01930144  RH  073%=      5-min Rain = 0
KTAS 241409Z 15012KT 19/14 A2986 RMK A01 T01920143  RH  073%=      5-min Rain = 0
KTAS 241410Z 16013KT 19/14 A2986 RMK A01 T01920142  RH  073%=      5-min Rain = 0
KTAS 241411Z 16011KT 19/14 A2986 RMK A01 T01920142  RH  073%=      5-min Rain = 0
KTAS 241412Z 16009KT 19/14 A2986 RMK A01 T01920143  RH  073%=      5-min Rain = 0
KTAS 241413Z 16012KT 19/14 A2986 RMK A01 T01930144  RH  074%=      5-min Rain = 0
KTAS 241414Z 16013KT 19/14 A2986 RMK A01 T01930143  RH  073%=      5-min Rain = 0
KTAS 241415Z 16013KT 19/14 A2986 RMK A01 T01930143  RH  073%=      5-min Rain = 0
KTAS 241416Z 16012KT 19/15 A2986 RMK A01 T01930145  RH  074%=      5-min Rain = 0
KTAS 241417Z 17013KT 19/14 A2986 RMK A01 T01930144  RH  073%=      5-min Rain = 0
KTAS 241418Z 16011KT 19/15 A2986 RMK A01 T01940146  RH  074%=      5-min Rain = 0
KTAS 241419Z 17011KT 20/15 A2986 RMK A01 T01950149  RH  074%=      5-min Rain = 0
KTAS 241420Z 16012KT 20/15 A2986 RMK A01 T01960147  RH  073%=      5-min Rain = 0
KTAS 241421Z 16014KT 20/15 A2986 RMK A01 T01960145  RH  072%=      5-min Rain = 0
KTAS 241422Z 16011KT 20/15 A2986 RMK A01 T01960145  RH  072%=      5-min Rain = 0
KTAS 241423Z 16012KT 20/15 A2986 RMK A01 T01970146  RH  072%=      5-min Rain = 0
KTAS 241424Z 16011KT 20/15 A2986 RMK A01 T01970147  RH  073%=      5-min Rain = 0
KTAS 241425Z 16014KT 20/15 A2986 RMK A01 T01970147  RH  073%=      5-min Rain = 0
KTAS 241426Z 16014KT 20/15 A2986 RMK A01 T01970147  RH  072%=      5-min Rain = 0
KTAS 241427Z 16014KT 20/15 A2986 RMK A01 T01970147  RH  073%=      5-min Rain = 0
KTAS 241428Z 16010KT 20/15 A2986 RMK A01 T01980149  RH  073%=      5-min Rain = 0
KTAS 241429Z 17012KT 20/15 A2986 RMK A01 T02000151  RH  073%=      5-min Rain = 0
KTAS 241430Z 17013KT 20/15 A2986 RMK A01 T02030152  RH  073%=      5-min Rain = 0
KTAS 241431Z 16015KT 21/15 A2986 RMK A01 T02050152  RH  072%=      5-min Rain = 0
KTAS 241432Z 17015KT 21/15 A2986 RMK A01 T02050150  RH  071%=      5-min Rain = 0
KTAS 241433Z 16016KT 20/15 A2986 RMK A01 T02040151  RH  071%=      5-min Rain = 0
KTAS 241434Z 17014KT 20/15 A2986 RMK A01 T02040151  RH  071%=      5-min Rain = 0
KTAS 241435Z 18014KT 20/15 A2986 RMK A01 T02040151  RH  072%=      5-min Rain = 0
KTAS 241436Z 18013KT 21/15 A2986 RMK A01 T02050153  RH  072%=      5-min Rain = 0
KTAS 241437Z 17015KT 21/15 A2986 RMK A01 T02050152  RH  072%=      5-min Rain = 0
KTAS 241438Z 17014KT 20/15 A2986 RMK A01 T02040152  RH  072%=      5-min Rain = 0
KTAS 241439Z 17015KT 20/15 A2986 RMK A01 T02040152  RH  072%=      5-min Rain = 0
KTAS 241440Z 17014KT 21/15 A2986 RMK A01 T02050152  RH  072%=      5-min Rain = 0
KTAS 241441Z 17013KT 21/16 A2986 RMK A01 T02070156  RH  072%=      5-min Rain = 0
KTAS 241442Z 18013KT 21/16 A2986 RMK A01 T02080155  RH  072%=      5-min Rain = 0
KTAS 241443Z 18015KT 21/15 A2986 RMK A01 T02080154  RH  071%=      5-min Rain = 0
KTAS 241444Z 18016KT 21/15 A2986 RMK A01 T02070153  RH  071%=      5-min Rain = 0
KTAS 241445Z 18013KT 21/15 A2986 RMK A01 T02070153  RH  072%=      5-min Rain = 0
KTAS 241446Z 17013KT 21/15 A2986 RMK A01 T02060154  RH  072%=      5-min Rain = 0
KTAS 241447Z 17014KT 21/16 A2986 RMK A01 T02060155  RH  072%=      5-min Rain = 0
KTAS 241448Z 18014KT 21/16 A2986 RMK A01 T02070156  RH  072%=      5-min Rain = 0
KTAS 241449Z 18015KT 21/16 A2986 RMK A01 T02070155  RH  072%=      5-min Rain = 0
KTAS 241450Z 18015KT 21/15 A2986 RMK A01 T02070154  RH  071%=      5-min Rain = 0
KTAS 241451Z 17014KT 21/16 A2986 RMK A01 T02080156  RH  072%=      5-min Rain = 0
KTAS 241452Z 17013KT 21/16 A2986 RMK A01 T02090157  RH  072%=      5-min Rain = 0
KTAS 241453Z 17012KT 21/16 A2986 RMK A01 T02100161  RH  073%=      5-min Rain = 0
KTAS 241454Z 18013KT 21/16 A2986 RMK A01 T02120161  RH  073%=      5-min Rain = 0
KTAS 241455Z 18013KT 21/16 A2986 RMK A01 T02110158  RH  071%=      5-min Rain = 0
KTAS 241456Z 18014KT 21/16 A2986 RMK A01 T02110159  RH  072%=      5-min Rain = 0
KTAS 241457Z 18011KT 21/16 A2986 RMK A01 T02120161  RH  072%=      5-min Rain = 0
KTAS 241458Z 18012KT 22/16 A2986 RMK A01 T02150164  RH  073%=      5-min Rain = 0
KTAS 241459Z 18013KT 22/16 A2986 RMK A01 T02150162  RH  072%=      5-min Rain = 0
KTAS 241500Z 17014KT 22/16 A2986 RMK A01 T02160164  RH  072%=      5-min Rain = 0
KTAS 241501Z 17018KT 22/16 A2986 RMK A01 T02160162  RH  072%=      5-min Rain = 0
KTAS 241502Z 18016KT 21/16 A2986 RMK A01 T02140161  RH  072%=      5-min Rain = 0
KTAS 241503Z 18016KT 21/16 A2986 RMK A01 T02140163  RH  073%=      5-min Rain = 0
KTAS 241504Z 19015G21KT 22/17 A2986 RMK A01 T02150166  RH  074%=      5-min Rain = 0
KTAS 241505Z 19015KT 22/17 A2986 RMK A01 T02160165  RH  073%=      5-min Rain = 0
KTAS 241506Z 19015KT 22/17 A2986 RMK A01 T02170167  RH  073%=      5-min Rain = 0
KTAS 241507Z 19016KT 22/17 A2986 RMK A01 T02180168  RH  073%=      5-min Rain = 0
KTAS 241508Z 19013G18KT 22/17 A2986 RMK A01 T02180168  RH  073%=      5-min Rain = 0
KTAS 241509Z 18014KT 22/17 A2986 RMK A01 T02190169  RH  073%=      5-min Rain = 0
KTAS 241510Z 19013G18KT 22/17 A2986 RMK A01 T02210172  RH  073%=      5-min Rain = 0
KTAS 241511Z 19017KT 22/17 A2986 RMK A01 T02200167  RH  072%=      5-min Rain = 0
KTAS 241512Z 18015KT 22/17 A2986 RMK A01 T02190168  RH  073%=      5-min Rain = 0
KTAS 241513Z 19017KT 22/17 A2986 RMK A01 T02200168  RH  073%=      5-min Rain = 0
KTAS 241514Z 18018KT 22/17 A2986 RMK A01 T02200167  RH  072%=      5-min Rain = 0
KTAS 241515Z 18014KT 22/17 A2986 RMK A01 T02200169  RH  073%=      5-min Rain = 0
KTAS 241516Z 18019KT 22/17 A2986 RMK A01 T02210167  RH  071%=      5-min Rain = 0
KTAS 241517Z 18018KT 22/17 A2986 RMK A01 T02200166  RH  071%=      5-min Rain = 0
KTAS 241518Z 18016KT 22/17 A2986 RMK A01 T02210167  RH  071%=      5-min Rain = 0
KTAS 241519Z 18014KT 22/17 A2986 RMK A01 T02220169  RH  072%=      5-min Rain = 0
KTAS 241520Z 18017KT 22/17 A2986 RMK A01 T02230168  RH  071%=      5-min Rain = 0
KTAS 241521Z 18014KT 22/17 A2986 RMK A01 T02230170  RH  072%=      5-min Rain = 0
KTAS 241522Z 19014KT 23/17 A2986 RMK A01 T02250171  RH  071%=      5-min Rain = 0
KTAS 241523Z 20013KT 23/17 A2986 RMK A01 T02250169  RH  071%=      5-min Rain = 0
KTAS 241524Z 19015G20KT 23/17 A2986 RMK A01 T02250171  RH  071%=      5-min Rain = 0
KTAS 241525Z 19015KT 23/17 A2986 RMK A01 T02250169  RH  071%=      5-min Rain = 0
KTAS 241526Z 19018G23KT 22/17 A2986 RMK A01 T02240168  RH  071%=      5-min Rain = 0
KTAS 241527Z 19018KT 22/17 A2986 RMK A01 T02240169  RH  071%=      5-min Rain = 0
KTAS 241528Z 20017KT 22/17 A2986 RMK A01 T02240168  RH  070%=      5-min Rain = 0
KTAS 241529Z 20017KT 22/17 A2986 RMK A01 T02240167  RH  070%=      5-min Rain = 0
KTAS 241530Z 20015KT 22/17 A2985 RMK A01 T02240170  RH  071%=      5-min Rain = 0
KTAS 241531Z 18016KT 23/17 A2985 RMK A01 T02250170  RH  071%=      5-min Rain = 0
KTAS 241532Z 19017KT 23/17 A2985 RMK A01 T02250169  RH  070%=      5-min Rain = 0
KTAS 241533Z 18015KT 23/17 A2985 RMK A01 T02260172  RH  071%=      5-min Rain = 0
KTAS 241534Z 18017G22KT 23/17 A2985 RMK A01 T02270170  RH  070%=      5-min Rain = 0
KTAS 241535Z 18018KT 23/17 A2985 RMK A01 T02270170  RH  070%=      5-min Rain = 0
KTAS 241536Z 18016KT 23/17 A2985 RMK A01 T02270171  RH  070%=      5-min Rain = 0
KTAS 241537Z 18015KT 23/17 A2985 RMK A01 T02290172  RH  070%=      5-min Rain = 0
KTAS 241538Z 18016KT 23/17 A2985 RMK A01 T02300172  RH  070%=      5-min Rain = 0
KTAS 241539Z 18017KT 23/17 A2985 RMK A01 T02290170  RH  069%=      5-min Rain = 0
KTAS 241540Z 18016KT 23/17 A2985 RMK A01 T02280171  RH  070%=      5-min Rain = 0
KTAS 241541Z 18015KT 23/17 A2985 RMK A01 T02290172  RH  070%=      5-min Rain = 0
KTAS 241542Z 18013KT 23/18 A2985 RMK A01 T02310175  RH  071%=      5-min Rain = 0
KTAS 241543Z 18012KT 23/18 A2985 RMK A01 T02320175  RH  070%=      5-min Rain = 0
KTAS 241544Z 18013KT 23/18 A2985 RMK A01 T02330175  RH  070%=      5-min Rain = 0
KTAS 241545Z 18014KT 23/18 A2985 RMK A01 T02330175  RH  070%=      5-min Rain = 0
KTAS 241546Z 18013KT 24/18 A2985 RMK A01 T02350176  RH  070%=      5-min Rain = 0
KTAS 241547Z 18017KT 24/18 A2985 RMK A01 T02360175  RH  069%=      5-min Rain = 0
KTAS 241548Z 19015KT 24/17 A2985 RMK A01 T02370174  RH  068%=      5-min Rain = 0
KTAS 241549Z 19015KT 24/18 A2985 RMK A01 T02380176  RH  068%=      5-min Rain = 0
KTAS 241550Z 20014G19KT 24/18 A2985 RMK A01 T02380175  RH  068%=      5-min Rain = 0
KTAS 241551Z 20015KT 24/17 A2985 RMK A01 T02370173  RH  067%=      5-min Rain = 0
KTAS 241552Z 20015G22KT 24/17 A2985 RMK A01 T02370174  RH  068%=      5-min Rain = 0
KTAS 241553Z 20017KT 24/17 A2985 RMK A01 T02370170  RH  066%=      5-min Rain = 0
KTAS 241554Z 20018KT 24/17 A2985 RMK A01 T02370170  RH  066%=      5-min Rain = 0
KTAS 241555Z 19012G17KT 24/17 A2985 RMK A01 T02360171  RH  067%=      5-min Rain = 0
KTAS 241556Z 19016KT 24/17 A2985 RMK A01 T02380173  RH  067%=      5-min Rain = 0
KTAS 241557Z 19013KT 24/17 A2985 RMK A01 T02380173  RH  067%=      5-min Rain = 0
KTAS 241558Z 19018KT 24/17 A2984 RMK A01 T02380172  RH  066%=      5-min Rain = 0
KTAS 241559Z 19014KT 24/17 A2984 RMK A01 T02370172  RH  067%=      5-min Rain = 0
KTAS 241600Z 19012G17KT 24/18 A2984 RMK A01 T02390175  RH  068%=      5-min Rain = 0
KTAS 241601Z 18014KT 24/18 A2984 RMK A01 T02410177  RH  067%=      5-min Rain = 0
KTAS 241602Z 18013KT 24/18 A2984 RMK A01 T02420176  RH  066%=      5-min Rain = 0
KTAS 241603Z 18014G19KT 24/18 A2985 RMK A01 T02420175  RH  066%=      5-min Rain = 0
KTAS 241604Z 18016KT 24/17 A2984 RMK A01 T02410173  RH  066%=      5-min Rain = 0
KTAS 241605Z 18016KT 24/17 A2984 RMK A01 T02400171  RH  065%=      5-min Rain = 0
KTAS 241606Z 17016KT 24/17 A2984 RMK A01 T02400172  RH  066%=      5-min Rain = 0
KTAS 241607Z 17014KT 24/17 A2984 RMK A01 T02390173  RH  066%=      5-min Rain = 0
KTAS 241608Z 17014KT 24/17 A2984 RMK A01 T02400174  RH  067%=      5-min Rain = 0
KTAS 241609Z 17015KT 24/18 A2984 RMK A01 T02410176  RH  067%=      5-min Rain = 0
KTAS 241610Z 17015KT 24/18 A2984 RMK A01 T02410177  RH  067%=      5-min Rain = 0
KTAS 241611Z 18016KT 24/18 A2984 RMK A01 T02420176  RH  067%=      5-min Rain = 0
KTAS 241612Z 18015KT 24/17 A2984 RMK A01 T02430174  RH  066%=      5-min Rain = 0
KTAS 241613Z 19014KT 24/17 A2984 RMK A01 T02430172  RH  064%=      5-min Rain = 0
KTAS 241614Z 18014KT 24/17 A2984 RMK A01 T02430173  RH  065%=      5-min Rain = 0
KTAS 241615Z 18015KT 24/17 A2984 RMK A01 T02440174  RH  065%=      5-min Rain = 0
KTAS 241616Z 17015KT 25/17 A2984 RMK A01 T02450172  RH  064%=      5-min Rain = 0
KTAS 241617Z 18014G19KT 25/17 A2984 RMK A01 T02450174  RH  065%=      5-min Rain = 0
KTAS 241618Z 18014KT 24/17 A2984 RMK A01 T02440172  RH  064%=      5-min Rain = 0
KTAS 241619Z 19013KT 25/18 A2984 RMK A01 T02450175  RH  065%=      5-min Rain = 0
KTAS 241620Z 19015KT 25/18 A2984 RMK A01 T02460175  RH  064%=      5-min Rain = 0
KTAS 241621Z 19014KT 25/18 A2984 RMK A01 T02480176  RH  064%=      5-min Rain = 0
KTAS 241622Z 19015KT 25/17 A2984 RMK A01 T02470172  RH  063%=      5-min Rain = 0
KTAS 241623Z 19014KT 25/17 A2984 RMK A01 T02470173  RH  064%=      5-min Rain = 0
KTAS 241624Z 19014KT 25/17 A2984 RMK A01 T02480174  RH  064%=      5-min Rain = 0
KTAS 241625Z 18011KT 25/17 A2984 RMK A01 T02470172  RH  063%=      5-min Rain = 0
KTAS 241626Z 19013KT 25/18 A2984 RMK A01 T02480176  RH  064%=      5-min Rain = 0
KTAS 241627Z 18015KT 25/18 A2984 RMK A01 T02510175  RH  063%=      5-min Rain = 0
KTAS 241628Z 17015KT 25/17 A2984 RMK A01 T02500171  RH  061%=      5-min Rain = 0
KTAS 241629Z 18013KT 25/17 A2984 RMK A01 T02490173  RH  062%=      5-min Rain = 0
KTAS 241630Z 19013KT 25/17 A2984 RMK A01 T02500173  RH  062%=      5-min Rain = 0
KTAS 241631Z 18012KT 25/18 A2984 RMK A01 T02520176  RH  063%=      5-min Rain = 0
KTAS 241632Z 19016KT 25/18 A2984 RMK A01 T02530175  RH  062%=      5-min Rain = 0
KTAS 241633Z 18015KT 25/17 A2984 RMK A01 T02520172  RH  061%=      5-min Rain = 0
KTAS 241634Z 18017KT 25/17 A2984 RMK A01 T02500173  RH  062%=      5-min Rain = 0
KTAS 241635Z 19016KT 25/17 A2984 RMK A01 T02500172  RH  062%=      5-min Rain = 0
KTAS 241636Z 19015KT 25/17 A2984 RMK A01 T02490171  RH  062%=      5-min Rain = 0
KTAS 241637Z 19016KT 25/17 A2984 RMK A01 T02490171  RH  062%=      5-min Rain = 0
KTAS 241638Z 18013KT 25/17 A2984 RMK A01 T02490173  RH  063%=      5-min Rain = 0
KTAS 241639Z 19014KT 25/18 A2984 RMK A01 T02510175  RH  063%=      5-min Rain = 0
KTAS 241640Z 19016KT 25/17 A2984 RMK A01 T02520174  RH  062%=      5-min Rain = 0
KTAS 241641Z 18013KT 25/18 A2984 RMK A01 T02520179  RH  064%=      5-min Rain = 0
KTAS 241642Z 18014G19KT 25/18 A2984 RMK A01 T02530177  RH  063%=      5-min Rain = 0
KTAS 241643Z 18014KT 25/18 A2984 RMK A01 T02530177  RH  063%=      5-min Rain = 0
KTAS 241644Z 17015KT 25/17 A2984 RMK A01 T02520174  RH  062%=      5-min Rain = 0
KTAS 241645Z 17010KT 25/17 A2984 RMK A01 T02510174  RH  062%=      5-min Rain = 0
KTAS 241646Z 18014KT 25/18 A2984 RMK A01 T02530179  RH  063%=      5-min Rain = 0
KTAS 241647Z 18014KT 26/18 A2984 RMK A01 T02550179  RH  063%=      5-min Rain = 0
KTAS 241648Z 18012KT 26/18 A2985 RMK A01 T02570178  RH  062%=      5-min Rain = 0
KTAS 241649Z 18011KT 26/18 A2984 RMK A01 T02560176  RH  061%=      5-min Rain = 0
KTAS 241650Z 17013G18KT 26/18 A2984 RMK A01 T02570178  RH  061%=      5-min Rain = 0
KTAS 241651Z 17016KT 26/18 A2984 RMK A01 T02580177  RH  061%=      5-min Rain = 0
KTAS 241652Z 18013KT 26/18 A2984 RMK A01 T02570175  RH  061%=      5-min Rain = 0
KTAS 241653Z 19012KT 26/17 A2984 RMK A01 T02560173  RH  060%=      5-min Rain = 0
KTAS 241654Z 18012KT 26/17 A2984 RMK A01 T02560173  RH  060%=      5-min Rain = 0
KTAS 241655Z 18012G17KT 26/17 A2984 RMK A01 T02560172  RH  060%=      5-min Rain = 0
KTAS 241656Z 18012KT 26/18 A2984 RMK A01 T02570175  RH  061%=      5-min Rain = 0
KTAS 241657Z 19009G14KT 26/18 A2984 RMK A01 T02580180  RH  062%=      5-min Rain = 0
KTAS 241658Z 20013KT 26/18 A2984 RMK A01 T02600177  RH  060%=      5-min Rain = 0
KTAS 241659Z 17013KT 26/18 A2985 RMK A01 T02590179  RH  061%=      5-min Rain = 0
KTAS 241700Z 18015KT 26/18 A2985 RMK A01 T02590175  RH  060%=      5-min Rain = 0
KTAS 241701Z 19014KT 26/17 A2985 RMK A01 T02580173  RH  059%=      5-min Rain = 0
KTAS 241702Z 16013KT 26/17 A2985 RMK A01 T02570174  RH  060%=      5-min Rain = 0
KTAS 241703Z 18013KT 26/18 A2985 RMK A01 T02570175  RH  061%=      5-min Rain = 0
KTAS 241704Z 17014KT 26/17 A2985 RMK A01 T02570174  RH  060%=      5-min Rain = 0
KTAS 241705Z 18011KT 26/18 A2985 RMK A01 T02570176  RH  061%=      5-min Rain = 0
KTAS 241706Z 18010KT 26/18 A2985 RMK A01 T02600179  RH  061%=      5-min Rain = 0
KTAS 241707Z 18010KT 26/18 A2985 RMK A01 T02610179  RH  061%=      5-min Rain = 0
KTAS 241708Z 17012KT 26/18 A2985 RMK A01 T02590178  RH  061%=      5-min Rain = 0
KTAS 241709Z 18014KT 26/18 A2985 RMK A01 T02560175  RH  061%=      5-min Rain = 0
KTAS 241710Z 16011KT 26/18 A2985 RMK A01 T02550176  RH  062%=      5-min Rain = 0
KTAS 241711Z 17015KT 26/18 A2985 RMK A01 T02550175  RH  061%=      5-min Rain = 0
KTAS 241712Z 16015KT 25/17 A2985 RMK A01 T02530171  RH  060%=      5-min Rain = 0
KTAS 241713Z 16012KT 25/17 A2985 RMK A01 T02540173  RH  061%=      5-min Rain = 0
KTAS 241714Z 17014KT 26/18 A2985 RMK A01 T02570176  RH  061%=      5-min Rain = 0
KTAS 241715Z 18014KT 26/17 A2985 RMK A01 T02580174  RH  060%=      5-min Rain = 0
KTAS 241716Z 16011KT 26/18 A2985 RMK A01 T02590176  RH  060%=      5-min Rain = 0
KTAS 241717Z 17013KT 26/18 A2985 RMK A01 T02600175  RH  059%=      5-min Rain = 0
KTAS 241718Z 18012KT 26/18 A2985 RMK A01 T02600175  RH  059%=      5-min Rain = 0
KTAS 241719Z 19012KT 26/18 A2984 RMK A01 T02600176  RH  060%=      5-min Rain = 0
KTAS 241720Z 18013KT 26/17 A2984 RMK A01 T02610174  RH  059%=      5-min Rain = 0
KTAS 241721Z 19013KT 26/17 A2984 RMK A01 T02610174  RH  059%=      5-min Rain = 0
KTAS 241722Z 20012KT 26/18 A2984 RMK A01 T02620176  RH  059%=      5-min Rain = 0
KTAS 241723Z 19014KT 26/17 A2984 RMK A01 T02630173  RH  058%=      5-min Rain = 0
KTAS 241724Z 18012KT 26/17 A2984 RMK A01 T02610172  RH  058%=      5-min Rain = 0
KTAS 241725Z 18010KT 26/18 A2984 RMK A01 T02620177  RH  059%=      5-min Rain = 0
KTAS 241726Z 19012KT 27/18 A2984 RMK A01 T02650179  RH  059%=      5-min Rain = 0
KTAS 241727Z 19014KT 26/17 A2984 RMK A01 T02640174  RH  058%=      5-min Rain = 0
KTAS 241728Z 18014KT 26/17 A2984 RMK A01 T02630173  RH  058%=      5-min Rain = 0
KTAS 241729Z 17012KT 26/17 A2984 RMK A01 T02620171  RH  057%=      5-min Rain = 0
KTAS 241730Z 18009KT 26/17 A2984 RMK A01 T02640172  RH  057%=      5-min Rain = 0
KTAS 241731Z 17011KT 27/17 A2984 RMK A01 T02660172  RH  056%=      5-min Rain = 0
KTAS 241732Z 18009KT 27/17 A2984 RMK A01 T02670172  RH  056%=      5-min Rain = 0
KTAS 241733Z 20012KT 27/17 A2984 RMK A01 T02680174  RH  056%=      5-min Rain = 0
KTAS 241734Z 19011KT 27/17 A2984 RMK A01 T02660171  RH  056%=      5-min Rain = 0
KTAS 241735Z 18013KT 27/17 A2984 RMK A01 T02660171  RH  056%=      5-min Rain = 0
KTAS 241736Z 19011KT 27/17 A2984 RMK A01 T02650169  RH  055%=      5-min Rain = 0
KTAS 241737Z 20012KT 27/17 A2984 RMK A01 T02660171  RH  056%=      5-min Rain = 0
KTAS 241738Z 19011KT 27/17 A2984 RMK A01 T02680174  RH  056%=      5-min Rain = 0
KTAS 241739Z 18013KT 27/17 A2984 RMK A01 T02690169  RH  054%=      5-min Rain = 0
KTAS 241740Z 18012KT 27/17 A2984 RMK A01 T02670166  RH  054%=      5-min Rain = 0
KTAS 241741Z 17011KT 27/17 A2984 RMK A01 T02670170  RH  055%=      5-min Rain = 0
KTAS 241742Z 17012KT 27/17 A2984 RMK A01 T02680168  RH  054%=      5-min Rain = 0
KTAS 241743Z 19010KT 27/17 A2984 RMK A01 T02680168  RH  054%=      5-min Rain = 0
KTAS 241744Z 16008KT 27/17 A2984 RMK A01 T02680170  RH  055%=      5-min Rain = 0
KTAS 241745Z 20009KT 27/18 A2984 RMK A01 T02720175  RH  056%=      5-min Rain = 0
KTAS 241746Z 19009KT 27/17 A2984 RMK A01 T02720171  RH  054%=      5-min Rain = 0
KTAS 241747Z 18012KT 27/17 A2984 RMK A01 T02710170  RH  054%=      5-min Rain = 0
KTAS 241748Z 19011KT 27/17 A2984 RMK A01 T02680169  RH  054%=      5-min Rain = 0
KTAS 241749Z 19012KT 27/17 A2984 RMK A01 T02670172  RH  056%=      5-min Rain = 0
KTAS 241750Z 19009KT 27/17 A2984 RMK A01 T02670169  RH  055%=      5-min Rain = 0
KTAS 241751Z 16011KT 27/17 A2984 RMK A01 T02680172  RH  056%=      5-min Rain = 0
KTAS 241752Z 16012KT 27/17 A2984 RMK A01 T02700174  RH  056%=      5-min Rain = 0
KTAS 241753Z 18010KT 27/17 A2984 RMK A01 T02710173  RH  055%=      5-min Rain = 0
KTAS 241754Z 20012KT 27/18 A2984 RMK A01 T02730175  RH  055%=      5-min Rain = 0
KTAS 241755Z 20011KT 27/18 A2984 RMK A01 T02740175  RH  055%=      5-min Rain = 0
KTAS 241756Z 19009KT 28/17 A2984 RMK A01 T02750171  RH  053%=      5-min Rain = 0
KTAS 241757Z 18009KT 27/17 A2984 RMK A01 T02730173  RH  054%=      5-min Rain = 0
KTAS 241758Z 18013KT 27/18 A2984 RMK A01 T02740176  RH  055%=      5-min Rain = 0
KTAS 241759Z 18010KT 27/17 A2984 RMK A01 T02740173  RH  054%=      5-min Rain = 0
KTAS 241800Z 17008KT 27/17 A2984 RMK A01 T02720171  RH  054%=      5-min Rain = 0
KTAS 241801Z 17007KT 27/17 A2984 RMK A01 T02720173  RH  055%=      5-min Rain = 0
KTAS 241802Z 19010KT 28/18 A2984 RMK A01 T02750176  RH  055%=      5-min Rain = 0
KTAS 241803Z 20011KT 28/17 A2984 RMK A01 T02750171  RH  053%=      5-min Rain = 0
KTAS 241804Z 20010KT 27/17 A2984 RMK A01 T02740172  RH  054%=      5-min Rain = 0
KTAS 241805Z 19009KT 27/17 A2983 RMK A01 T02740172  RH  054%=      5-min Rain = 0
KTAS 241806Z 19011KT 28/18 A2983 RMK A01 T02760175  RH  054%=      5-min Rain = 0
KTAS 241807Z 18011KT 28/17 A2984 RMK A01 T02760174  RH  054%=      5-min Rain = 0
KTAS 241808Z 17013KT 28/18 A2984 RMK A01 T02770175  RH  054%=      5-min Rain = 0
KTAS 241809Z 18009KT 28/18 A2984 RMK A01 T02770176  RH  054%=      5-min Rain = 0
KTAS 241810Z 16010KT 28/18 A2984 RMK A01 T02790175  RH  053%=      5-min Rain = 0
KTAS 241811Z 16012KT 28/17 A2984 RMK A01 T02780169  RH  052%=      5-min Rain = 0
KTAS 241812Z 16012KT 28/17 A2984 RMK A01 T02760168  RH  052%=      5-min Rain = 0
KTAS 241813Z 16007KT 28/17 A2984 RMK A01 T02760173  RH  053%=      5-min Rain = 0
KTAS 241814Z 18009KT 28/18 A2983 RMK A01 T02810175  RH  053%=      5-min Rain = 0
KTAS 241815Z 20010KT 28/17 A2983 RMK A01 T02790166  RH  050%=      5-min Rain = 0
KTAS 241816Z 20008KT 28/17 A2983 RMK A01 T02790169  RH  051%=      5-min Rain = 0
KTAS 241817Z 19009KT 28/17 A2983 RMK A01 T02780170  RH  052%=      5-min Rain = 0
KTAS 241818Z 18011KT 28/17 A2983 RMK A01 T02800173  RH  052%=      5-min Rain = 0
KTAS 241819Z 19011KT 28/18 A2983 RMK A01 T02820177  RH  053%=      5-min Rain = 0
KTAS 241820Z 18011KT 28/17 A2983 RMK A01 T02830172  RH  051%=      5-min Rain = 0
KTAS 241821Z 17010KT 28/17 A2983 RMK A01 T02820174  RH  052%=      5-min Rain = 0
KTAS 241822Z 18009KT 28/17 A2983 RMK A01 T02800173  RH  052%=      5-min Rain = 0
KTAS 241823Z 18008KT 28/18 A2983 RMK A01 T02810176  RH  053%=      5-min Rain = 0
KTAS 241824Z 17009KT 28/18 A2983 RMK A01 T02810176  RH  053%=      5-min Rain = 0
KTAS 241825Z 16009KT 28/18 A2983 RMK A01 T02800175  RH  053%=      5-min Rain = 0
KTAS 241826Z 16011KT 28/18 A2983 RMK A01 T02800178  RH  054%=      5-min Rain = 0
KTAS 241827Z 15010KT 28/17 A2983 RMK A01 T02790174  RH  053%=      5-min Rain = 0
KTAS 241828Z 17013KT 28/18 A2983 RMK A01 T02800177  RH  054%=      5-min Rain = 0
KTAS 241829Z 17011KT 28/17 A2983 RMK A01 T02800173  RH  052%=      5-min Rain = 0
KTAS 241830Z 18008KT 28/18 A2983 RMK A01 T02820179  RH  053%=      5-min Rain = 0
KTAS 241831Z 18011KT 29/18 A2983 RMK A01 T02860178  RH  052%=      5-min Rain = 0
KTAS 241832Z 18009KT 28/17 A2983 RMK A01 T02840172  RH  051%=      5-min Rain = 0
KTAS 241833Z 17005KT 28/18 A2983 RMK A01 T02840181  RH  054%=      5-min Rain = 0
KTAS 241834Z 17009KT 29/18 A2983 RMK A01 T02880180  RH  052%=      5-min Rain = 0
KTAS 241835Z 15009KT 28/17 A2983 RMK A01 T02840171  RH  050%=      5-min Rain = 0
KTAS 241836Z 15008KT 28/17 A2983 RMK A01 T02800174  RH  053%=      5-min Rain = 0
KTAS 241837Z 16009KT 28/18 A2983 RMK A01 T02800179  RH  054%=      5-min Rain = 0
KTAS 241838Z 16010KT 28/18 A2982 RMK A01 T02830177  RH  053%=      5-min Rain = 0
KTAS 241839Z 17010G15KT 29/18 A2982 RMK A01 T02860178  RH  052%=      5-min Rain = 0
KTAS 241840Z 16012KT 29/18 A2982 RMK A01 T02870175  RH  051%=      5-min Rain = 0
KTAS 241841Z 16011KT 29/17 A2982 RMK A01 T02850171  RH  050%=      5-min Rain = 0
KTAS 241842Z 16010KT 28/17 A2982 RMK A01 T02840172  RH  051%=      5-min Rain = 0
KTAS 241843Z 17008KT 29/17 A2982 RMK A01 T02850174  RH  051%=      5-min Rain = 0
KTAS 241844Z 16009KT 29/18 A2982 RMK A01 T02860178  RH  052%=      5-min Rain = 0
KTAS 241845Z 16010KT 29/18 A2982 RMK A01 T02880182  RH  052%=      5-min Rain = 0
KTAS 241846Z 14007KT 29/18 A2982 RMK A01 T02900184  RH  053%=      5-min Rain = 0
KTAS 241847Z 15011KT 29/18 A2982 RMK A01 T02900183  RH  052%=      5-min Rain = 0
KTAS 241848Z 14009KT 29/18 A2982 RMK A01 T02890184  RH  053%=      5-min Rain = 0
KTAS 241849Z 15009KT 29/18 A2982 RMK A01 T02870182  RH  053%=      5-min Rain = 0
KTAS 241850Z 15007KT 29/19 A2982 RMK A01 T02890185  RH  053%=      5-min Rain = 0
KTAS 241851Z 15007KT 29/18 A2982 RMK A01 T02890183  RH  053%=      5-min Rain = 0
KTAS 241852Z 16009KT 29/18 A2982 RMK A01 T02880181  RH  052%=      5-min Rain = 0
KTAS 241853Z 17010KT 29/18 A2982 RMK A01 T02850177  RH  052%=      5-min Rain = 0
KTAS 241854Z 17010KT 28/18 A2982 RMK A01 T02840179  RH  053%=      5-min Rain = 0
KTAS 241855Z 17009KT 28/18 A2982 RMK A01 T02840181  RH  053%=      5-min Rain = 0
KTAS 241856Z 15006KT 29/18 A2982 RMK A01 T02850184  RH  054%=      5-min Rain = 0
KTAS 241857Z 15004KT 29/18 A2981 RMK A01 T02850178  RH  052%=      5-min Rain = 0
KTAS 241858Z 15006G11KT 28/18 A2981 RMK A01 T02840182  RH  054%=      5-min Rain = 0
KTAS 241859Z 16005KT 29/18 A2981 RMK A01 T02850184  RH  054%=      5-min Rain = 0
KTAS 241900Z 16003KT 29/18 A2981 RMK A01 T02850183  RH  054%=      5-min Rain = 0
KTAS 241901Z 16007KT 29/19 A2981 RMK A01 T02870187  RH  055%=      5-min Rain = 0
KTAS 241902Z 14008KT 29/19 A2981 RMK A01 T02890190  RH  055%=      5-min Rain = 0
KTAS 241903Z 14008KT 29/19 A2981 RMK A01 T02900188  RH  054%=      5-min Rain = 0
KTAS 241904Z 15011KT 29/19 A2981 RMK A01 T02880185  RH  054%=      5-min Rain = 0
KTAS 241905Z 15011KT 29/18 A2981 RMK A01 T02860180  RH  053%=      5-min Rain = 0
KTAS 241906Z 15009KT 29/18 A2981 RMK A01 T02870181  RH  053%=      5-min Rain = 0
KTAS 241907Z 16012KT 29/18 A2981 RMK A01 T02890182  RH  053%=      5-min Rain = 0
KTAS 241908Z 16014KT 29/18 A2981 RMK A01 T02900177  RH  051%=      5-min Rain = 0
KTAS 241909Z 16011KT 29/18 A2981 RMK A01 T02900182  RH  052%=      5-min Rain = 0
KTAS 241910Z 16011KT 29/18 A2981 RMK A01 T02930182  RH  051%=      5-min Rain = 0
KTAS 241911Z 18011KT 29/18 A2981 RMK A01 T02910178  RH  051%=      5-min Rain = 0
KTAS 241912Z 17011G16KT 29/18 A2981 RMK A01 T02880177  RH  051%=      5-min Rain = 0
KTAS 241913Z 18008KT 29/18 A2981 RMK A01 T02880179  RH  052%=      5-min Rain = 0
KTAS 241914Z 14009KT 29/18 A2981 RMK A01 T02900184  RH  052%=      5-min Rain = 0
KTAS 241915Z 15011KT 29/19 A2981 RMK A01 T02920187  RH  053%=      5-min Rain = 0
KTAS 241916Z 16009KT 29/18 A2981 RMK A01 T02910180  RH  051%=      5-min Rain = 0
KTAS 241917Z 16013KT 29/18 A2981 RMK A01 T02930182  RH  051%=      5-min Rain = 0
KTAS 241918Z 15013KT 29/18 A2981 RMK A01 T02910177  RH  050%=      5-min Rain = 0
KTAS 241919Z 16012KT 29/18 A2981 RMK A01 T02910178  RH  050%=      5-min Rain = 0
KTAS 241920Z 16008KT 29/18 A2981 RMK A01 T02900175  RH  050%=      5-min Rain = 0
KTAS 241921Z 17008KT 29/18 A2981 RMK A01 T02900177  RH  051%=      5-min Rain = 0
KTAS 241922Z 16007KT 29/18 A2981 RMK A01 T02910179  RH  051%=      5-min Rain = 0
KTAS 241923Z 16008KT 29/18 A2981 RMK A01 T02930180  RH  051%=      5-min Rain = 0
KTAS 241924Z 16011KT 30/18 A298 RMK A01 T02950182  RH  051%=      5-min Rain = 0
KTAS 241925Z 15008KT 30/19 A298 RMK A01 T02980188  RH  052%=      5-min Rain = 0
KTAS 241926Z 16008KT 30/19 A298 RMK A01 T03000187  RH  051%=      5-min Rain = 0
KTAS 241927Z 15009KT 30/18 A298 RMK A01 T03010184  RH  050%=      5-min Rain = 0
KTAS 241928Z 15009KT 30/18 A298 RMK A01 T03010181  RH  049%=      5-min Rain = 0
KTAS 241929Z 15008KT 30/18 A298 RMK A01 T03000181  RH  049%=      5-min Rain = 0
KTAS 241930Z 14006KT 30/18 A298 RMK A01 T02980176  RH  048%=      5-min Rain = 0
KTAS 241931Z 14009KT 30/18 A298 RMK A01 T02980183  RH  050%=      5-min Rain = 0
KTAS 241932Z 15009KT 30/18 A298 RMK A01 T03000183  RH  050%=      5-min Rain = 0
KTAS 241933Z 15009KT 30/18 A298 RMK A01 T03000182  RH  049%=      5-min Rain = 0
KTAS 241934Z 15010KT 30/18 A298 RMK A01 T02990183  RH  050%=      5-min Rain = 0
KTAS 241935Z 16011KT 30/19 A298 RMK A01 T03000188  RH  051%=      5-min Rain = 0
KTAS 241936Z 16011KT 30/18 A298 RMK A01 T03010182  RH  049%=      5-min Rain = 0
KTAS 241937Z 16008KT 30/18 A298 RMK A01 T02990177  RH  048%=      5-min Rain = 0
KTAS 241938Z 13007KT 30/18 A298 RMK A01 T02960181  RH  050%=      5-min Rain = 0
KTAS 241939Z 12009KT 30/18 A298 RMK A01 T02960180  RH  050%=      5-min Rain = 0
KTAS 241940Z 13007KT 29/18 A298 RMK A01 T02920179  RH  050%=      5-min Rain = 0
KTAS 241941Z 16008KT 29/19 A298 RMK A01 T02940186  RH  052%=      5-min Rain = 0
KTAS 241942Z 16008KT 30/18 A298 RMK A01 T02960183  RH  051%=      5-min Rain = 0
KTAS 241943Z 15008KT 30/18 A298 RMK A01 T02970183  RH  050%=      5-min Rain = 0
KTAS 241944Z 14010KT 30/18 A2979 RMK A01 T02980175  RH  048%=      5-min Rain = 0
KTAS 241945Z 15008KT 30/18 A2979 RMK A01 T02960176  RH  048%=      5-min Rain = 0
KTAS 241946Z 16008KT 30/18 A2979 RMK A01 T02970183  RH  050%=      5-min Rain = 0
KTAS 241947Z 15008KT 30/18 A2979 RMK A01 T03000183  RH  049%=      5-min Rain = 0
KTAS 241948Z 15011KT 30/18 A2979 RMK A01 T03020180  RH  048%=      5-min Rain = 0
KTAS 241949Z 16010KT 30/18 A2979 RMK A01 T03000176  RH  047%=      5-min Rain = 0
KTAS 241950Z 17011KT 30/18 A2979 RMK A01 T03000175  RH  047%=      5-min Rain = 0
KTAS 241951Z 17009KT 30/17 A2979 RMK A01 T02990174  RH  047%=      5-min Rain = 0
KTAS 241952Z 18010KT 30/18 A2979 RMK A01 T03010177  RH  048%=      5-min Rain = 0
KTAS 241953Z 16012KT 30/18 A2979 RMK A01 T03020178  RH  047%=      5-min Rain = 0
KTAS 241954Z 16008KT 30/18 A2979 RMK A01 T03030179  RH  048%=      5-min Rain = 0
KTAS 241955Z 12009KT 30/19 A2979 RMK A01 T03040186  RH  049%=      5-min Rain = 0
KTAS 241956Z 11009KT 30/18 A2979 RMK A01 T03020183  RH  049%=      5-min Rain = 0
KTAS 241957Z 14005KT 30/19 A2979 RMK A01 T03020185  RH  050%=      5-min Rain = 0
KTAS 241958Z 16007KT 30/18 A2979 RMK A01 T03030182  RH  048%=      5-min Rain = 0
KTAS 241959Z 17009KT 30/18 A2979 RMK A01 T03020175  RH  046%=      5-min Rain = 0
KTAS 242000Z 18009KT 30/18 A2978 RMK A01 T03010177  RH  048%=      5-min Rain = 0
KTAS 242001Z 15008KT 30/18 A2978 RMK A01 T03020182  RH  049%=      5-min Rain = 0
KTAS 242002Z 14007KT 30/18 A2978 RMK A01 T03040183  RH  048%=      5-min Rain = 0
KTAS 242003Z 14010KT 30/18 A2978 RMK A01 T03030180  RH  048%=      5-min Rain = 0
KTAS 242004Z 14006KT 30/18 A2978 RMK A01 T03000175  RH  047%=      5-min Rain = 0
KTAS 242005Z 11007KT 30/18 A2978 RMK A01 T02990179  RH  048%=      5-min Rain = 0
KTAS 242006Z 12009KT 30/18 A2978 RMK A01 T02990182  RH  050%=      5-min Rain = 0
KTAS 242007Z 13006KT 30/18 A2978 RMK A01 T02990180  RH  049%=      5-min Rain = 0
KTAS 242008Z 14008KT 30/18 A2978 RMK A01 T02990182  RH  050%=      5-min Rain = 0
KTAS 242009Z 12009KT 30/18 A2978 RMK A01 T02980182  RH  050%=      5-min Rain = 0
KTAS 242010Z 13011KT 30/19 A2978 RMK A01 T03000187  RH  051%=      5-min Rain = 0
KTAS 242011Z 13010KT 30/18 A2978 RMK A01 T03000176  RH  047%=      5-min Rain = 0
KTAS 242012Z 13008G13KT 30/18 A2978 RMK A01 T02980177  RH  048%=      5-min Rain = 0
KTAS 242013Z 14008G13KT 30/18 A2978 RMK A01 T03000182  RH  049%=      5-min Rain = 0
KTAS 242014Z 11010KT 30/19 A2978 RMK A01 T03030186  RH  050%=      5-min Rain = 0
KTAS 242015Z 14008KT 30/18 A2978 RMK A01 T03020184  RH  049%=      5-min Rain = 0
KTAS 242016Z 14011KT 30/18 A2978 RMK A01 T03030183  RH  048%=      5-min Rain = 0
KTAS 242017Z 13010KT 31/18 A2977 RMK A01 T03050183  RH  048%=      5-min Rain = 0
KTAS 242018Z 13009KT 31/18 A2977 RMK A01 T03060182  RH  048%=      5-min Rain = 0
KTAS 242019Z 12012KT 31/18 A2977 RMK A01 T03050180  RH  047%=      5-min Rain = 0
KTAS 242020Z 12010KT 30/18 A2977 RMK A01 T03030182  RH  048%=      5-min Rain = 0
KTAS 242021Z 13009KT 30/18 A2977 RMK A01 T03030179  RH  047%=      5-min Rain = 0
KTAS 242022Z 13008KT 30/18 A2977 RMK A01 T03010176  RH  047%=      5-min Rain = 0
KTAS 242023Z 12010KT 30/18 A2977 RMK A01 T03000179  RH  048%=      5-min Rain = 0
KTAS 242024Z 11008KT 30/18 A2977 RMK A01 T02990177  RH  048%=      5-min Rain = 0
KTAS 242025Z 13008KT 30/18 A2977 RMK A01 T02980178  RH  048%=      5-min Rain = 0
KTAS 242026Z 13010KT 30/18 A2977 RMK A01 T03000181  RH  049%=      5-min Rain = 0
KTAS 242027Z 13008KT 30/18 A2977 RMK A01 T02990175  RH  047%=      5-min Rain = 0
KTAS 242028Z 12007KT 30/18 A2977 RMK A01 T02980175  RH  048%=      5-min Rain = 0
KTAS 242029Z 12009G16KT 30/18 A2977 RMK A01 T02970177  RH  049%=      5-min Rain = 0
KTAS 242030Z 13011KT 30/18 A2977 RMK A01 T02980177  RH  048%=      5-min Rain = 0
KTAS 242031Z 12009KT 30/18 A2977 RMK A01 T03000179  RH  048%=      5-min Rain = 0
KTAS 242032Z 11009KT 30/18 A2977 RMK A01 T02980175  RH  048%=      5-min Rain = 0
KTAS 242033Z 12012KT 30/18 A2977 RMK A01 T02990176  RH  048%=      5-min Rain = 0
KTAS 242034Z 12011KT 30/18 A2977 RMK A01 T02980176  RH  048%=      5-min Rain = 0
KTAS 242035Z 12009KT 30/18 A2977 RMK A01 T02980177  RH  048%=      5-min Rain = 0
KTAS 242036Z 11006KT 30/17 A2976 RMK A01 T02970174  RH  047%=      5-min Rain = 0
KTAS 242037Z 11007KT 30/18 A2976 RMK A01 T02970177  RH  049%=      5-min Rain = 0
KTAS 242038Z 12007KT 30/18 A2976 RMK A01 T03000182  RH  049%=      5-min Rain = 0
KTAS 242039Z 15009KT 30/18 A2976 RMK A01 T03020179  RH  048%=      5-min Rain = 0
KTAS 242040Z 13008KT 30/18 A2976 RMK A01 T03030178  RH  047%=      5-min Rain = 0
KTAS 242041Z 13011KT 30/18 A2976 RMK A01 T03040180  RH  047%=      5-min Rain = 0
KTAS 242042Z 13009KT 30/18 A2976 RMK A01 T03040180  RH  048%=      5-min Rain = 0
KTAS 242043Z 13010KT 31/18 A2976 RMK A01 T03050181  RH  048%=      5-min Rain = 0
KTAS 242044Z 13009KT 30/18 A2976 RMK A01 T03040181  RH  048%=      5-min Rain = 0
KTAS 242045Z 12012KT 30/18 A2976 RMK A01 T03040176  RH  046%=      5-min Rain = 0
KTAS 242046Z 13008KT 30/17 A2976 RMK A01 T03000174  RH  047%=      5-min Rain = 0
KTAS 242047Z 14011KT 30/18 A2976 RMK A01 T03030181  RH  048%=      5-min Rain = 0
KTAS 242048Z 13011KT 31/18 A2975 RMK A01 T03050181  RH  047%=      5-min Rain = 0
KTAS 242049Z 13011KT 31/18 A2975 RMK A01 T03050180  RH  047%=      5-min Rain = 0
KTAS 242050Z 14008KT 31/18 A2975 RMK A01 T03060178  RH  046%=      5-min Rain = 0
KTAS 242051Z 13007G12KT 31/18 A2975 RMK A01 T03080182  RH  047%=      5-min Rain = 0
KTAS 242052Z 12010KT 31/18 A2975 RMK A01 T03090176  RH  045%=      5-min Rain = 0
KTAS 242053Z 13010KT 31/18 A2975 RMK A01 T03070175  RH  045%=      5-min Rain = 0
KTAS 242054Z 13010KT 31/17 A2975 RMK A01 T03060171  RH  044%=      5-min Rain = 0
KTAS 242055Z 12009KT 31/17 A2975 RMK A01 T03050174  RH  046%=      5-min Rain = 0
KTAS 242056Z 12007KT 31/17 A2975 RMK A01 T03050171  RH  045%=      5-min Rain = 0
KTAS 242057Z 12009KT 30/17 A2975 RMK A01 T03040173  RH  046%=      5-min Rain = 0
KTAS 242058Z 13008KT 31/18 A2975 RMK A01 T03050178  RH  047%=      5-min Rain = 0
KTAS 242059Z 13010KT 31/18 A2975 RMK A01 T03060179  RH  047%=      5-min Rain = 0
KTAS 242100Z 14010G15KT 31/18 A2974 RMK A01 T03060175  RH  045%=      5-min Rain = 0
KTAS 242101Z 12009KT 31/17 A2974 RMK A01 T03060172  RH  045%=      5-min Rain = 0
KTAS 242102Z 12008KT 30/18 A2974 RMK A01 T03040176  RH  046%=      5-min Rain = 0
KTAS 242103Z 12012KT 31/18 A2974 RMK A01 T03060178  RH  047%=      5-min Rain = 0
KTAS 242104Z 12010KT 31/17 A2974 RMK A01 T03050173  RH  045%=      5-min Rain = 0
KTAS 242105Z 11008KT 30/17 A2974 RMK A01 T03030170  RH  045%=      5-min Rain = 0
KTAS 242106Z 10006KT 30/17 A2974 RMK A01 T03030172  RH  045%=      5-min Rain = 0
KTAS 242107Z 11007KT 30/17 A2974 RMK A01 T03030172  RH  046%=      5-min Rain = 0
KTAS 242108Z 13010KT 30/17 A2974 RMK A01 T03040174  RH  046%=      5-min Rain = 0
KTAS 242109Z 12011KT 30/17 A2974 RMK A01 T03040171  RH  045%=      5-min Rain = 0
KTAS 242110Z 12008KT 30/17 A2974 RMK A01 T03030169  RH  045%=      5-min Rain = 0
KTAS 242111Z 11006KT 30/17 A2974 RMK A01 T03040174  RH  046%=      5-min Rain = 0
KTAS 242112Z 14009KT 31/18 A2973 RMK A01 T03080178  RH  046%=      5-min Rain = 0
KTAS 242113Z 14006KT 31/17 A2973 RMK A01 T03100169  RH  043%=      5-min Rain = 0
KTAS 242114Z 13008G14KT 31/17 A2973 RMK A01 T03100174  RH  044%=      5-min Rain = 0
KTAS 242115Z 12011KT 31/18 A2973 RMK A01 T03110177  RH  045%=      5-min Rain = 0
KTAS 242116Z 12009KT 31/18 A2973 RMK A01 T03110176  RH  044%=      5-min Rain = 0
KTAS 242117Z 12008KT 31/17 A2973 RMK A01 T03100173  RH  044%=      5-min Rain = 0
KTAS 242118Z 12007KT 31/17 A2973 RMK A01 T03080172  RH  044%=      5-min Rain = 0
KTAS 242119Z 12012KT 31/17 A2973 RMK A01 T03090174  RH  044%=      5-min Rain = 0
KTAS 242120Z 13011KT 31/17 A2973 RMK A01 T03080169  RH  043%=      5-min Rain = 0
KTAS 242121Z 12011KT 31/17 A2973 RMK A01 T03070169  RH  044%=      5-min Rain = 0
KTAS 242122Z 11009KT 31/18 A2973 RMK A01 T03070175  RH  045%=      5-min Rain = 0
KTAS 242123Z 11010KT 31/17 A2972 RMK A01 T03080171  RH  044%=      5-min Rain = 0
KTAS 242124Z 13011KT 31/17 A2973 RMK A01 T03060168  RH  043%=      5-min Rain = 0
KTAS 242125Z 12008KT 31/17 A2972 RMK A01 T03060170  RH  044%=      5-min Rain = 0
KTAS 242126Z 11008KT 31/18 A2972 RMK A01 T03090179  RH  046%=      5-min Rain = 0
KTAS 242127Z 12007KT 31/17 A2972 RMK A01 T03110170  RH  043%=      5-min Rain = 0
KTAS 242128Z 11007KT 31/17 A2972 RMK A01 T03100170  RH  043%=      5-min Rain = 0
KTAS 242129Z 12005KT 31/17 A2972 RMK A01 T03090172  RH  044%=      5-min Rain = 0
KTAS 242130Z 10007KT 31/18 A2972 RMK A01 T03120176  RH  044%=      5-min Rain = 0
KTAS 242131Z 10012KT 31/17 A2972 RMK A01 T03120165  RH  041%=      5-min Rain = 0
KTAS 242132Z 09009KT 31/16 A2972 RMK A01 T03100164  RH  041%=      5-min Rain = 0
KTAS 242133Z 10007KT 31/16 A2972 RMK A01 T03090164  RH  042%=      5-min Rain = 0
KTAS 242134Z 12010KT 31/17 A2972 RMK A01 T03090167  RH  042%=      5-min Rain = 0
KTAS 242135Z 12009KT 31/17 A2972 RMK A01 T03090165  RH  042%=      5-min Rain = 0
KTAS 242136Z 11008KT 31/16 A2972 RMK A01 T03080164  RH  042%=      5-min Rain = 0
KTAS 242137Z 14010KT 31/17 A2972 RMK A01 T03080166  RH  042%=      5-min Rain = 0
KTAS 242138Z 13011KT 31/17 A2971 RMK A01 T03100166  RH  042%=      5-min Rain = 0
KTAS 242139Z 13011KT 31/17 A2971 RMK A01 T03100165  RH  042%=      5-min Rain = 0
KTAS 242140Z 12010G15KT 31/17 A2971 RMK A01 T03100167  RH  042%=      5-min Rain = 0
KTAS 242141Z 12011KT 31/17 A2971 RMK A01 T03110166  RH  042%=      5-min Rain = 0
KTAS 242142Z 12010KT 31/17 A2971 RMK A01 T03110168  RH  042%=      5-min Rain = 0
KTAS 242143Z 13010KT 31/16 A2971 RMK A01 T03100159  RH  040%=      5-min Rain = 0
KTAS 242144Z 13011KT 31/16 A2971 RMK A01 T03080163  RH  042%=      5-min Rain = 0
KTAS 242145Z 13010KT 31/16 A2971 RMK A01 T03070162  RH  042%=      5-min Rain = 0
KTAS 242146Z 14008KT 31/16 A297 RMK A01 T03070163  RH  042%=      5-min Rain = 0
KTAS 242147Z 10009G14KT 31/17 A297 RMK A01 T03080167  RH  043%=      5-min Rain = 0
KTAS 242148Z 10008KT 31/16 A297 RMK A01 T03080159  RH  041%=      5-min Rain = 0
KTAS 242149Z 11009KT 31/17 A297 RMK A01 T03090166  RH  042%=      5-min Rain = 0
KTAS 242150Z 11008KT 31/16 A297 RMK A01 T03110164  RH  041%=      5-min Rain = 0
KTAS 242151Z 11008KT 31/16 A297 RMK A01 T03120163  RH  041%=      5-min Rain = 0
KTAS 242152Z 13011G16KT 31/17 A297 RMK A01 T03140166  RH  041%=      5-min Rain = 0
KTAS 242153Z 13014KT 31/16 A297 RMK A01 T03140163  RH  040%=      5-min Rain = 0
KTAS 242154Z 13013KT 31/16 A297 RMK A01 T03140163  RH  040%=      5-min Rain = 0
KTAS 242155Z 12010KT 31/16 A297 RMK A01 T03120159  RH  040%=      5-min Rain = 0
KTAS 242156Z 12010KT 31/16 A297 RMK A01 T03090159  RH  040%=      5-min Rain = 0
KTAS 242157Z 12011KT 31/16 A297 RMK A01 T03110163  RH  041%=      5-min Rain = 0
KTAS 242158Z 12012KT 31/15 A297 RMK A01 T03110154  RH  039%=      5-min Rain = 0
KTAS 242159Z 12011KT 31/15 A297 RMK A01 T03100152  RH  038%=      5-min Rain = 0
KTAS 242200Z 12014KT 31/15 A297 RMK A01 T03090154  RH  039%=      5-min Rain = 0
KTAS 242201Z 12011KT 31/16 A297 RMK A01 T03110159  RH  040%=      5-min Rain = 0
KTAS 242202Z 12015KT 31/16 A297 RMK A01 T03130155  RH  038%=      5-min Rain = 0
KTAS 242203Z 13012KT 31/16 A2969 RMK A01 T03140159  RH  039%=      5-min Rain = 0
KTAS 242204Z 12015KT 32/16 A2969 RMK A01 T03170159  RH  039%=      5-min Rain = 0
KTAS 242205Z 12014KT 32/15 A2969 RMK A01 T03150154  RH  038%=      5-min Rain = 0
KTAS 242206Z 13013KT 31/15 A2969 RMK A01 T03130154  RH  038%=      5-min Rain = 0
KTAS 242207Z 13012KT 31/16 A2969 RMK A01 T03130157  RH  039%=      5-min Rain = 0
KTAS 242208Z 12015KT 31/15 A2969 RMK A01 T03130150  RH  037%=      5-min Rain = 0
KTAS 242209Z 12013KT 31/15 A2969 RMK A01 T03110149  RH  037%=      5-min Rain = 0
KTAS 242210Z 14010KT 31/15 A2969 RMK A01 T03100150  RH  038%=      5-min Rain = 0
KTAS 242211Z 14010KT 31/15 A2969 RMK A01 T03120153  RH  038%=      5-min Rain = 0
KTAS 242212Z 12011KT 31/16 A2969 RMK A01 T03140158  RH  039%=      5-min Rain = 0
KTAS 242213Z 13011KT 31/15 A2969 RMK A01 T03130153  RH  038%=      5-min Rain = 0
KTAS 242214Z 13010KT 31/16 A2969 RMK A01 T03120156  RH  039%=      5-min Rain = 0
KTAS 242215Z 14013KT 31/15 A2969 RMK A01 T03120154  RH  038%=      5-min Rain = 0
KTAS 242216Z 12010KT 31/15 A2969 RMK A01 T03110152  RH  038%=      5-min Rain = 0
KTAS 242217Z 12009KT 31/16 A2969 RMK A01 T03110160  RH  040%=      5-min Rain = 0
KTAS 242218Z 13010G15KT 31/16 A2969 RMK A01 T03120161  RH  040%=      5-min Rain = 0
KTAS 242219Z 12012KT 31/16 A2969 RMK A01 T03100157  RH  039%=      5-min Rain = 0
KTAS 242220Z 12010KT 31/16 A2969 RMK A01 T03070156  RH  040%=      5-min Rain = 0
KTAS 242221Z 12009KT 30/15 A2969 RMK A01 T03030152  RH  040%=      5-min Rain = 0
KTAS 242222Z 12010KT 30/15 A2969 RMK A01 T03000154  RH  041%=      5-min Rain = 0
KTAS 242223Z 13011KT 30/15 A2969 RMK A01 T02980152  RH  041%=      5-min Rain = 0
KTAS 242224Z 12011KT 30/15 A2969 RMK A01 T02970152  RH  042%=      5-min Rain = 0
KTAS 242225Z 12010KT 30/14 A2969 RMK A01 T02960143  RH  039%=      5-min Rain = 0
KTAS 242226Z 13010KT 30/15 A2968 RMK A01 T02950150  RH  041%=      5-min Rain = 0
KTAS 242227Z 12010KT 30/15 A2968 RMK A01 T02950152  RH  042%=      5-min Rain = 0
KTAS 242228Z 12011G16KT 30/16 A2968 RMK A01 T02950155  RH  043%=      5-min Rain = 0
KTAS 242229Z 13010KT 30/15 A2968 RMK A01 T02950148  RH  041%=      5-min Rain = 0
KTAS 242230Z 11009KT 30/15 A2968 RMK A01 T02950152  RH  042%=      5-min Rain = 0
KTAS 242231Z 11009KT 30/16 A2968 RMK A01 T02950157  RH  043%=      5-min Rain = 0
KTAS 242232Z 11009KT 30/16 A2967 RMK A01 T02950158  RH  043%=      5-min Rain = 0
KTAS 242233Z 11010KT 30/16 A2967 RMK A01 T02950157  RH  043%=      5-min Rain = 0
KTAS 242234Z 11009KT 30/16 A2967 RMK A01 T02950156  RH  043%=      5-min Rain = 0
KTAS 242235Z 11008KT 30/15 A2967 RMK A01 T02950154  RH  042%=      5-min Rain = 0
KTAS 242236Z 12009KT 30/16 A2967 RMK A01 T02950156  RH  043%=      5-min Rain = 0
KTAS 242237Z 12010KT 29/16 A2967 RMK A01 T02940156  RH  043%=      5-min Rain = 0
KTAS 242238Z 13010KT 29/15 A2967 RMK A01 T02940153  RH  042%=      5-min Rain = 0
KTAS 242239Z 12009KT 29/16 A2967 RMK A01 T02940156  RH  043%=      5-min Rain = 0
KTAS 242240Z 12010KT 29/15 A2966 RMK A01 T02940153  RH  042%=      5-min Rain = 0
KTAS 242241Z 11010KT 29/15 A2966 RMK A01 T02930151  RH  042%=      5-min Rain = 0
KTAS 242242Z 12009KT 29/15 A2966 RMK A01 T02920151  RH  042%=      5-min Rain = 0
KTAS 242243Z 12010KT 29/15 A2966 RMK A01 T02920154  RH  043%=      5-min Rain = 0
KTAS 242244Z 11009KT 29/16 A2966 RMK A01 T02910156  RH  044%=      5-min Rain = 0
KTAS 242245Z 12009KT 29/16 A2966 RMK A01 T02900157  RH  044%=      5-min Rain = 0
KTAS 242246Z 11008KT 29/16 A2966 RMK A01 T02900157  RH  045%=      5-min Rain = 0
KTAS 242247Z 12008KT 29/16 A2966 RMK A01 T02890160  RH  046%=      5-min Rain = 0
KTAS 242248Z 11009KT 29/16 A2966 RMK A01 T02880159  RH  046%=      5-min Rain = 0
KTAS 242249Z 11008KT 29/16 A2966 RMK A01 T02880158  RH  045%=      5-min Rain = 0
KTAS 242250Z 11009KT 29/16 A2965 RMK A01 T02880158  RH  045%=      5-min Rain = 0
KTAS 242251Z 12009KT 29/16 A2965 RMK A01 T02880157  RH  045%=      5-min Rain = 0
KTAS 242252Z 11009KT 29/15 A2965 RMK A01 T02900154  RH  044%=      5-min Rain = 0
KTAS 242253Z 12009KT 29/16 A2965 RMK A01 T02900155  RH  044%=      5-min Rain = 0
KTAS 242254Z 12009KT 29/16 A2965 RMK A01 T02900155  RH  044%=      5-min Rain = 0
KTAS 242255Z 11009KT 29/16 A2966 RMK A01 T02880156  RH  045%=      5-min Rain = 0
KTAS 242256Z 11009KT 29/16 A2966 RMK A01 T02870158  RH  046%=      5-min Rain = 0
KTAS 242257Z 12009KT 29/16 A2966 RMK A01 T02850157  RH  046%=      5-min Rain = 0
KTAS 242258Z 12009KT 28/16 A2966 RMK A01 T02840156  RH  046%=      5-min Rain = 0
KTAS 242259Z 12008KT 28/16 A2966 RMK A01 T02830158  RH  046%=      5-min Rain = 0
KTAS 242300Z 12007KT 28/16 A2966 RMK A01 T02820159  RH  047%=      5-min Rain = 0
KTAS 242301Z 12009KT 28/16 A2966 RMK A01 T02820157  RH  047%=      5-min Rain = 0
KTAS 242302Z 12008KT 28/16 A2966 RMK A01 T02820157  RH  047%=      5-min Rain = 0
KTAS 242303Z 12008KT 28/16 A2967 RMK A01 T02820159  RH  047%=      5-min Rain = 0
KTAS 242304Z 13009KT 28/16 A2967 RMK A01 T02820160  RH  048%=      5-min Rain = 0
KTAS 242305Z 12010KT 28/16 A2967 RMK A01 T02810162  RH  048%=      5-min Rain = 0
KTAS 242306Z 14014KT 28/16 A2967 RMK A01 T02810160  RH  048%=      5-min Rain = 0
KTAS 242307Z 15013KT 28/15 A2967 RMK A01 T02800150  RH  045%=      5-min Rain = 0
KTAS 242308Z 14012G17KT 28/14 A2967 RMK A01 T02770141  RH  043%=      5-min Rain = 0
KTAS 242309Z 13013KT 27/13 A2967 RMK A01 T02740132  RH  042%=      5-min Rain = 0
KTAS 242310Z 13013KT 27/13 A2966 RMK A01 T02690131  RH  043%=      5-min Rain = 0
KTAS 242311Z 12013KT 27/12 A2966 RMK A01 T02650115  RH  039%=      5-min Rain = 0
KTAS 242312Z 12012KT 26/11 A2967 RMK A01 T02630109  RH  038%=      5-min Rain = 0
KTAS 242313Z 13014KT 26/12 A2967 RMK A01 T02620121  RH  042%=      5-min Rain = 0
KTAS 242314Z 14013KT 26/13 A2967 RMK A01 T02600128  RH  044%=      5-min Rain = 0
KTAS 242315Z 14012KT 26/13 A2967 RMK A01 T02590127  RH  044%=      5-min Rain = 0
KTAS 242316Z 14012KT 26/12 A2967 RMK A01 T02600121  RH  042%=      5-min Rain = 0
KTAS 242317Z 13012KT 26/12 A2967 RMK A01 T02600115  RH  040%=      5-min Rain = 0
KTAS 242318Z 12010KT 26/11 A2967 RMK A01 T02600106  RH  038%=      5-min Rain = 0
KTAS 242319Z 11010KT 26/11 A2967 RMK A01 T02590110  RH  039%=      5-min Rain = 0
KTAS 242320Z 11010KT 26/10 A2967 RMK A01 T02590102  RH  037%=      5-min Rain = 0
KTAS 242321Z 13013KT 26/09 A2967 RMK A01 T02610089  RH  034%=      5-min Rain = 0
KTAS 242322Z 13014KT 26/09 A2968 RMK A01 T02620086  RH  033%=      5-min Rain = 0
KTAS 242323Z 14013KT 26/09 A2968 RMK A01 T02600093  RH  035%=      5-min Rain = 0
KTAS 242324Z 14012KT 26/10 A2968 RMK A01 T02580100  RH  037%=      5-min Rain = 0
KTAS 242325Z 13012KT 26/10 A2968 RMK A01 T02570102  RH  038%=      5-min Rain = 0
KTAS 242326Z 13014KT 26/10 A2968 RMK A01 T02550096  RH  037%=      5-min Rain = 0
KTAS 242327Z 13013KT 26/08 A2967 RMK A01 T02570081  RH  033%=      5-min Rain = 0
KTAS 242328Z 13013KT 26/08 A2967 RMK A01 T02590081  RH  032%=      5-min Rain = 0
KTAS 242329Z 13014KT 26/09 A2967 RMK A01 T02580090  RH  034%=      5-min Rain = 0
KTAS 242330Z 12014KT 26/09 A2967 RMK A01 T02570089  RH  035%=      5-min Rain = 0
KTAS 242331Z 12013KT 26/10 A2967 RMK A01 T02550097  RH  037%=      5-min Rain = 0
KTAS 242332Z 12013KT 25/11 A2967 RMK A01 T02530105  RH  039%=      5-min Rain = 0
KTAS 242333Z 13014KT 25/11 A2967 RMK A01 T02500105  RH  040%=      5-min Rain = 0
KTAS 242334Z 13014KT 25/10 A2967 RMK A01 T02500103  RH  040%=      5-min Rain = 0
KTAS 242335Z 12017KT 25/10 A2967 RMK A01 T02490096  RH  038%=      5-min Rain = 0
KTAS 242336Z 11014KT 25/09 A2967 RMK A01 T02470094  RH  038%=      5-min Rain = 0
KTAS 242337Z 11013KT 25/09 A2966 RMK A01 T02470093  RH  037%=      5-min Rain = 0
KTAS 242338Z 10014KT 25/09 A2966 RMK A01 T02470092  RH  037%=      5-min Rain = 0
KTAS 242339Z 10011KT 25/09 A2966 RMK A01 T02480091  RH  037%=      5-min Rain = 0
KTAS 242340Z 09011KT 25/09 A2966 RMK A01 T02500088  RH  036%=      5-min Rain = 0
KTAS 242341Z 10011KT 25/09 A2967 RMK A01 T02510087  RH  035%=      5-min Rain = 0
KTAS 242342Z 10012KT 25/08 A2967 RMK A01 T02520081  RH  034%=      5-min Rain = 0
KTAS 242343Z 10010KT 25/07 A2968 RMK A01 T02530072  RH  031%=      5-min Rain = 0
KTAS 242344Z 09008KT 26/07 A2968 RMK A01 T02550067  RH  030%=      5-min Rain = 0
KTAS 242345Z 05007KT 26/07 A297 RMK A01 T02570068  RH  030%=      5-min Rain = 0
KTAS 242346Z 36015KT 26/08 A2971 RMK A01 T02560077  RH  032%=      5-min Rain = 0
KTAS 242347Z 35012KT 25/09 A2971 RMK A01 T02480086  RH  036%=      5-min Rain = 0
KTAS 242348Z 33009G14KT 24/09 A2971 RMK A01 T02400088  RH  038%=      5-min Rain = 0
KTAS 242349Z 32007KT 24/09 A2972 RMK A01 T02360087  RH  039%=      5-min Rain = 0
KTAS 242350Z 33008KT 23/08 A2971 RMK A01 T02330084  RH  039%=      5-min Rain = 0
KTAS 242351Z 34010KT 23/09 A2971 RMK A01 T02300088  RH  040%=      5-min Rain = 0
KTAS 242352Z 34010KT 22/09 A2971 RMK A01 T02240093  RH  043%=      5-min Rain = 0
KTAS 242353Z 34013KT 22/10 A2971 RMK A01 T02170095  RH  045%=      5-min Rain = 0
KTAS 242354Z 34016KT 21/09 A297 RMK A01 T02120092  RH  046%=      5-min Rain = 0
KTAS 242355Z 34013KT 21/09 A297 RMK A01 T02090090  RH  046%=      5-min Rain = 0
KTAS 242356Z 35007KT 21/09 A297 RMK A01 T02080090  RH  047%=      5-min Rain = 0
KTAS 242357Z 02010KT 21/09 A297 RMK A01 T02070092  RH  048%=      5-min Rain = 0
KTAS 242358Z 01010KT 21/10 A297 RMK A01 T02060095  RH  049%=      5-min Rain = 0
KTAS 242359Z 36009KT 21/10 A297 RMK A01 T02060100  RH  051%=      5-min Rain = 0
KTAS 250000Z 00018G23KT 21/11 A2969 RMK A01 T02080106  RH  052%=      5-min Rain = 0
KTAS 250001Z 36022KT 21/11 A2968 RMK A01 T02120109  RH  052%=      5-min Rain = 0
KTAS 250002Z 35019G24KT 21/11 A2968 RMK A01 T02140111  RH  052%=      5-min Rain = 0
KTAS 250003Z 36018KT 21/11 A2968 RMK A01 T02140113  RH  052%=      5-min Rain = 0
KTAS 250004Z 36016KT 22/11 A2968 RMK A01 T02200113  RH  050%=      5-min Rain = 0
KTAS 250005Z 36015KT 22/12 A2968 RMK A01 T02210116  RH  051%=      5-min Rain = 0
KTAS 250006Z 36014KT 22/12 A2967 RMK A01 T02170118  RH  053%=      5-min Rain = 0
KTAS 250007Z 35014KT 22/12 A2967 RMK A01 T02160117  RH  053%=      5-min Rain = 0
KTAS 250008Z 35018KT 21/12 A2967 RMK A01 T02140121  RH  055%=      5-min Rain = 0
KTAS 250009Z 36021KT 21/13 A2966 RMK A01 T02110125  RH  058%=      5-min Rain = 0
KTAS 250010Z 36025G32KT 21/12 A2967 RMK A01 T02120122  RH  056%=      5-min Rain = 0
KTAS 250011Z 35021KT 22/11 A2967 RMK A01 T02200108  RH  049%=      5-min Rain = 0
KTAS 250012Z 02021G26KT 23/11 A2966 RMK A01 T02290105  RH  046%=      5-min Rain = 0
KTAS 250013Z 03021KT 23/10 A2965 RMK A01 T02320101  RH  044%=      5-min Rain = 0
KTAS 250014Z 05021KT 23/10 A2964 RMK A01 T02340095  RH  041%=      5-min Rain = 0
KTAS 250015Z 07021G26KT 24/08 A2964 RMK A01 T02370084  RH  038%=      5-min Rain = 0
KTAS 250016Z 08020G25KT 23/09 A2964 RMK A01 T02330093  RH  041%=      5-min Rain = 0
KTAS 250017Z 09023G28KT 22/10 A2965 RMK A01 T02230099  RH  045%=      5-min Rain = 0
KTAS 250018Z 10023G28KT 22/09 A2965 RMK A01 T02220091  RH  043%=      5-min Rain = 0.01
KTAS 250019Z 09020G25KT 21/10 A2965 RMK A01 T02110101  RH  049%=      5-min Rain = 0.01
KTAS 250020Z 08026KT 19/10 A2966 RMK A01 T01920100  RH  055%=      5-min Rain = 0.03
KTAS 250021Z 08025KT 18/10 A2967 RMK A01 T01770098  RH  060%=      5-min Rain = 0.05
KTAS 250022Z 08019KT 17/10 A2967 RMK A01 T01660098  RH  064%=      5-min Rain = 0.05
KTAS 250023Z 11018G26KT 17/10 A2968 RMK A01 T01650100  RH  065%=      5-min Rain = 0.04
KTAS 250024Z 10012KT 18/11 A2969 RMK A01 T01770106  RH  063%=      5-min Rain = 0.02
KTAS 250025Z 13010G17KT 19/11 A2969 RMK A01 T01870105  RH  059%=      5-min Rain = 0
KTAS 250026Z 11016KT 18/11 A2968 RMK A01 T01820106  RH  061%=      5-min Rain = 0.01
KTAS 250027Z 11014KT 18/11 A2968 RMK A01 T01800106  RH  062%=      5-min Rain = 0.04
KTAS 250028Z 11012KT 18/11 A2967 RMK A01 T01760110  RH  066%=      5-min Rain = 0.01
KTAS 250029Z 11015KT 17/11 A2965 RMK A01 T01670110  RH  069%=      5-min Rain = 0.01
KTAS 250030Z 12017KT 16/11 A2964 RMK A01 T01630108  RH  070%=      5-min Rain = 0
KTAS 250031Z 11018KT 17/11 A2963 RMK A01 T01650107  RH  069%=      5-min Rain = 0.01
KTAS 250032Z 12017G25KT 17/11 A2962 RMK A01 T01660109  RH  069%=      5-min Rain = 0
KTAS 250033Z 12023KT 17/11 A2961 RMK A01 T01690106  RH  066%=      5-min Rain = 0
KTAS 250034Z 12023KT 18/10 A2961 RMK A01 T01780103  RH  061%=      5-min Rain = 0
KTAS 250035Z 12022KT 19/10 A2961 RMK A01 T01850102  RH  058%=      5-min Rain = 0
KTAS 250036Z 14024G31KT 19/10 A2962 RMK A01 T01860104  RH  059%=      5-min Rain = 0.01
KTAS 250037Z 14027KT 19/11 A2962 RMK A01 T01860114  RH  063%=      5-min Rain = 0
KTAS 250038Z 13025G30KT 19/12 A2962 RMK A01 T01860118  RH  065%=      5-min Rain = 0
KTAS 250039Z 13020KT 18/12 A2963 RMK A01 T01840116  RH  065%=      5-min Rain = 0
KTAS 250040Z 14015KT 18/11 A2963 RMK A01 T01830114  RH  064%=      5-min Rain = 0
KTAS 250041Z 15008KT 18/12 A2964 RMK A01 T01840115  RH  064%=      5-min Rain = 0
KTAS 250042Z 14010KT 18/12 A2964 RMK A01 T01820118  RH  066%=      5-min Rain = 0
KTAS 250043Z 13010KT 18/12 A2964 RMK A01 T01810118  RH  067%=      5-min Rain = 0
KTAS 250044Z 08006KT 18/12 A2965 RMK A01 T01800120  RH  068%=      5-min Rain = 0
KTAS 250045Z 03007KT 18/12 A2965 RMK A01 T01770120  RH  069%=      5-min Rain = 0
KTAS 250046Z 02008KT 18/12 A2966 RMK A01 T01760122  RH  071%=      5-min Rain = 0
KTAS 250047Z 35007KT 17/12 A2966 RMK A01 T01740122  RH  072%=      5-min Rain = 0
KTAS 250048Z 34007G12KT 17/12 A2967 RMK A01 T01740120  RH  070%=      5-min Rain = 0
KTAS 250049Z 33006KT 18/11 A2967 RMK A01 T01830111  RH  063%=      5-min Rain = 0
KTAS 250050Z 30007KT 19/11 A2967 RMK A01 T01890112  RH  061%=      5-min Rain = 0
KTAS 250051Z 30008KT 19/12 A2967 RMK A01 T01870117  RH  064%=      5-min Rain = 0
KTAS 250052Z 33011KT 19/12 A2967 RMK A01 T01850117  RH  065%=      5-min Rain = 0
KTAS 250053Z 33009KT 19/11 A2966 RMK A01 T01890114  RH  061%=      5-min Rain = 0
KTAS 250054Z 35004G11KT 20/11 A2966 RMK A01 T01950105  RH  056%=      5-min Rain = 0
KTAS 250055Z 11003KT 20/11 A2967 RMK A01 T02020107  RH  055%=      5-min Rain = 0
KTAS 250056Z 10002KT 20/12 A2967 RMK A01 T01990116  RH  059%=      5-min Rain = 0
KTAS 250057Z 05004KT 20/12 A2967 RMK A01 T01970116  RH  060%=      5-min Rain = 0
KTAS 250058Z 32003KT 20/11 A2967 RMK A01 T01960113  RH  059%=      5-min Rain = 0
KTAS 250059Z 26005KT 20/11 A2967 RMK A01 T01990106  RH  055%=      5-min Rain = 0
KTAS 250100Z 18001KT 21/10 A2967 RMK A01 T02050101  RH  051%=      5-min Rain = 0
KTAS 250101Z 14003KT 21/10 A2968 RMK A01 T02090096  RH  049%=      5-min Rain = 0
KTAS 250102Z 07006KT 21/10 A2968 RMK A01 T02110101  RH  049%=      5-min Rain = 0
KTAS 250103Z 09004KT 22/10 A2968 RMK A01 T02170098  RH  047%=      5-min Rain = 0
KTAS 250104Z 11004KT 22/09 A2969 RMK A01 T02190091  RH  044%=      5-min Rain = 0
KTAS 250105Z 12006KT 22/09 A2969 RMK A01 T02230094  RH  044%=      5-min Rain = 0
KTAS 250106Z 10005KT 22/10 A2969 RMK A01 T02210101  RH  047%=      5-min Rain = 0
KTAS 250107Z 08004KT 22/11 A2969 RMK A01 T02160109  RH  051%=      5-min Rain = 0
KTAS 250108Z 04009G14KT 21/11 A2969 RMK A01 T02110109  RH  052%=      5-min Rain = 0
KTAS 250109Z 03011KT 21/11 A297 RMK A01 T02080112  RH  054%=      5-min Rain = 0
KTAS 250110Z 03008KT 21/12 A297 RMK A01 T02050117  RH  057%=      5-min Rain = 0
KTAS 250111Z 02009KT 20/12 A297 RMK A01 T02010120  RH  059%=      5-min Rain = 0
KTAS 250112Z 03011KT 20/12 A297 RMK A01 T01970121  RH  061%=      5-min Rain = 0
KTAS 250113Z 03010KT 20/12 A297 RMK A01 T01950124  RH  064%=      5-min Rain = 0
KTAS 250114Z 04009KT 19/13 A297 RMK A01 T01910127  RH  066%=      5-min Rain = 0
KTAS 250115Z 04010KT 19/13 A297 RMK A01 T01890126  RH  067%=      5-min Rain = 0
KTAS 250116Z 03011KT 19/13 A297 RMK A01 T01880126  RH  067%=      5-min Rain = 0
KTAS 250117Z 03013KT 19/12 A2969 RMK A01 T01880124  RH  066%=      5-min Rain = 0
KTAS 250118Z 02010KT 19/12 A2969 RMK A01 T01880124  RH  066%=      5-min Rain = 0
KTAS 250119Z 01013KT 19/13 A2969 RMK A01 T01870127  RH  068%=      5-min Rain = 0
KTAS 250120Z 01012KT 19/13 A2969 RMK A01 T01850129  RH  070%=      5-min Rain = 0
KTAS 250121Z 01011KT 18/13 A2969 RMK A01 T01830130  RH  071%=      5-min Rain = 0
KTAS 250122Z 01011KT 18/13 A2969 RMK A01 T01820131  RH  072%=      5-min Rain = 0
KTAS 250123Z 01010KT 18/13 A2969 RMK A01 T01810132  RH  073%=      5-min Rain = 0
KTAS 250124Z 01009KT 18/13 A2968 RMK A01 T01810132  RH  073%=      5-min Rain = 0
KTAS 250125Z 01009KT 18/13 A2968 RMK A01 T01800132  RH  073%=      5-min Rain = 0
KTAS 250126Z 02009KT 18/13 A2968 RMK A01 T01800132  RH  073%=      5-min Rain = 0
KTAS 250127Z 02008KT 18/13 A2968 RMK A01 T01800132  RH  073%=      5-min Rain = 0
KTAS 250128Z 02008KT 18/13 A2968 RMK A01 T01800133  RH  074%=      5-min Rain = 0
KTAS 250129Z 02007KT 18/13 A2968 RMK A01 T01790133  RH  074%=      5-min Rain = 0
KTAS 250130Z 03007KT 18/13 A2968 RMK A01 T01790133  RH  074%=      5-min Rain = 0
KTAS 250131Z 03007KT 18/13 A2968 RMK A01 T01800134  RH  075%=      5-min Rain = 0
KTAS 250132Z 03007KT 18/14 A2968 RMK A01 T01800135  RH  075%=      5-min Rain = 0
KTAS 250133Z 03008KT 18/13 A2968 RMK A01 T01800134  RH  074%=      5-min Rain = 0
KTAS 250134Z 03008KT 18/13 A2968 RMK A01 T01800133  RH  074%=      5-min Rain = 0
KTAS 250135Z 04007KT 18/13 A2968 RMK A01 T01800133  RH  074%=      5-min Rain = 0
KTAS 250136Z 05007KT 18/13 A2969 RMK A01 T01800132  RH  074%=      5-min Rain = 0
KTAS 250137Z 06007KT 18/13 A2969 RMK A01 T01790131  RH  073%=      5-min Rain = 0
KTAS 250138Z 06007KT 18/13 A2969 RMK A01 T01790131  RH  074%=      5-min Rain = 0
KTAS 250139Z 06007KT 18/13 A2969 RMK A01 T01780129  RH  073%=      5-min Rain = 0
KTAS 250140Z 05007KT 18/13 A297 RMK A01 T01780128  RH  072%=      5-min Rain = 0
KTAS 250141Z 05008KT 18/13 A297 RMK A01 T01780129  RH  073%=      5-min Rain = 0
KTAS 250142Z 05008KT 18/13 A2971 RMK A01 T01780130  RH  074%=      5-min Rain = 0
KTAS 250143Z 06008KT 18/13 A2971 RMK A01 T01770131  RH  074%=      5-min Rain = 0
KTAS 250144Z 06009KT 18/13 A2972 RMK A01 T01770130  RH  074%=      5-min Rain = 0
KTAS 250145Z 07010KT 18/13 A2972 RMK A01 T01770130  RH  074%=      5-min Rain = 0
KTAS 250146Z 06012KT 18/13 A2972 RMK A01 T01750130  RH  074%=      5-min Rain = 0
KTAS 250147Z 06011KT 17/13 A2973 RMK A01 T01740129  RH  075%=      5-min Rain = 0
KTAS 250148Z 07010KT 17/13 A2973 RMK A01 T01730130  RH  076%=      5-min Rain = 0
KTAS 250149Z 07012KT 17/13 A2973 RMK A01 T01710130  RH  077%=      5-min Rain = 0
KTAS 250150Z 07013KT 17/13 A2973 RMK A01 T01680130  RH  078%=      5-min Rain = 0
KTAS 250151Z 06012KT 17/13 A2973 RMK A01 T01660129  RH  079%=      5-min Rain = 0
KTAS 250152Z 07010KT 16/13 A2973 RMK A01 T01640130  RH  080%=      5-min Rain = 0
KTAS 250153Z 08011KT 16/13 A2973 RMK A01 T01630130  RH  081%=      5-min Rain = 0
KTAS 250154Z 07011KT 16/13 A2973 RMK A01 T01630130  RH  081%=      5-min Rain = 0
KTAS 250155Z 07011KT 16/13 A2973 RMK A01 T01620128  RH  080%=      5-min Rain = 0
KTAS 250156Z 06011KT 16/13 A2973 RMK A01 T01620127  RH  080%=      5-min Rain = 0
KTAS 250157Z 04010KT 16/13 A2973 RMK A01 T01630128  RH  080%=      5-min Rain = 0
KTAS 250158Z 04012KT 16/13 A2974 RMK A01 T01620129  RH  081%=      5-min Rain = 0
KTAS 250159Z 05011KT 16/13 A2974 RMK A01 T01610129  RH  081%=      5-min Rain = 0
KTAS 250200Z 04012KT 16/13 A2974 RMK A01 T01610129  RH  081%=      5-min Rain = 0
KTAS 250201Z 04012KT 16/13 A2974 RMK A01 T01610130  RH  081%=      5-min Rain = 0
KTAS 250202Z 04013G18KT 16/13 A2974 RMK A01 T01610130  RH  082%=      5-min Rain = 0
KTAS 250203Z 06015KT 16/13 A2974 RMK A01 T01590128  RH  082%=      5-min Rain = 0
KTAS 250204Z 06014KT 16/13 A2974 RMK A01 T01580125  RH  081%=      5-min Rain = 0
KTAS 250205Z 07011KT 16/12 A2974 RMK A01 T01570124  RH  081%=      5-min Rain = 0
KTAS 250206Z 07011KT 16/12 A2974 RMK A01 T01560124  RH  081%=      5-min Rain = 0
KTAS 250207Z 07015KT 16/12 A2975 RMK A01 T01550124  RH  082%=      5-min Rain = 0
KTAS 250208Z 08012KT 16/12 A2976 RMK A01 T01550124  RH  082%=      5-min Rain = 0
KTAS 250209Z 08012KT 16/13 A2976 RMK A01 T01550125  RH  082%=      5-min Rain = 0
KTAS 250210Z 08013KT 15/12 A2976 RMK A01 T01540124  RH  082%=      5-min Rain = 0
KTAS 250211Z 08011KT 15/12 A2975 RMK A01 T01540124  RH  082%=      5-min Rain = 0
KTAS 250212Z 07011KT 15/12 A2975 RMK A01 T01540124  RH  082%=      5-min Rain = 0
KTAS 250213Z 06010KT 15/12 A2974 RMK A01 T01540124  RH  082%=      5-min Rain = 0
KTAS 250214Z 05010KT 15/12 A2975 RMK A01 T01540124  RH  082%=      5-min Rain = 0
KTAS 250215Z 06011KT 15/12 A2975 RMK A01 T01530124  RH  083%=      5-min Rain = 0
KTAS 250216Z 08011KT 15/12 A2975 RMK A01 T01530124  RH  083%=      5-min Rain = 0
KTAS 250217Z 10011KT 15/12 A2975 RMK A01 T01530124  RH  083%=      5-min Rain = 0
KTAS 250218Z 12013KT 15/13 A2974 RMK A01 T01530125  RH  083%=      5-min Rain = 0
KTAS 250219Z 12014KT 15/13 A2974 RMK A01 T01530126  RH  084%=      5-min Rain = 0
KTAS 250220Z 11013KT 15/13 A2973 RMK A01 T01530125  RH  084%=      5-min Rain = 0
KTAS 250221Z 11013KT 15/12 A2973 RMK A01 T01530124  RH  083%=      5-min Rain = 0
KTAS 250222Z 11012KT 15/12 A2973 RMK A01 T01540121  RH  081%=      5-min Rain = 0
KTAS 250223Z 12010KT 16/12 A2973 RMK A01 T01560120  RH  079%=      5-min Rain = 0
KTAS 250224Z 12009KT 16/12 A2973 RMK A01 T01570121  RH  079%=      5-min Rain = 0
KTAS 250225Z 11008KT 16/12 A2973 RMK A01 T01570123  RH  080%=      5-min Rain = 0
KTAS 250226Z 11008KT 16/13 A2973 RMK A01 T01560125  RH  082%=      5-min Rain = 0
KTAS 250227Z 10009KT 16/13 A2973 RMK A01 T01550125  RH  082%=      5-min Rain = 0
KTAS 250228Z 10010KT 16/12 A2973 RMK A01 T01550124  RH  082%=      5-min Rain = 0
KTAS 250229Z 12009KT 16/12 A2973 RMK A01 T01560124  RH  081%=      5-min Rain = 0
KTAS 250230Z 12008KT 16/12 A2973 RMK A01 T01570124  RH  081%=      5-min Rain = 0
KTAS 250231Z 13008KT 16/12 A2972 RMK A01 T01570124  RH  081%=      5-min Rain = 0
KTAS 250232Z 12007KT 16/13 A2972 RMK A01 T01570125  RH  081%=      5-min Rain = 0
KTAS 250233Z 11008KT 16/13 A2972 RMK A01 T01570126  RH  082%=      5-min Rain = 0
KTAS 250234Z 12007KT 16/13 A2972 RMK A01 T01560126  RH  082%=      5-min Rain = 0
KTAS 250235Z 12008KT 16/13 A2972 RMK A01 T01560126  RH  082%=      5-min Rain = 0
KTAS 250236Z 13009KT 16/13 A2972 RMK A01 T01560126  RH  082%=      5-min Rain = 0
KTAS 250237Z 13008KT 16/13 A2971 RMK A01 T01560125  RH  082%=      5-min Rain = 0
KTAS 250238Z 12008KT 16/13 A2971 RMK A01 T01570125  RH  081%=      5-min Rain = 0
KTAS 250239Z 12007KT 16/12 A2971 RMK A01 T01570124  RH  081%=      5-min Rain = 0
KTAS 250240Z 12008KT 16/12 A2971 RMK A01 T01570124  RH  081%=      5-min Rain = 0
KTAS 250241Z 12008KT 16/13 A2971 RMK A01 T01570125  RH  081%=      5-min Rain = 0
KTAS 250242Z 12007KT 16/12 A2971 RMK A01 T01580124  RH  080%=      5-min Rain = 0
KTAS 250243Z 10004KT 16/13 A297 RMK A01 T01590125  RH  080%=      5-min Rain = 0
KTAS 250244Z 09005KT 16/13 A297 RMK A01 T01580125  RH  081%=      5-min Rain = 0
KTAS 250245Z 10006KT 16/12 A2971 RMK A01 T01580124  RH  080%=      5-min Rain = 0
KTAS 250246Z 10005KT 16/12 A297 RMK A01 T01580124  RH  080%=      5-min Rain = 0
KTAS 250247Z 12007KT 16/12 A297 RMK A01 T01580123  RH  080%=      5-min Rain = 0
KTAS 250248Z 12006KT 16/12 A297 RMK A01 T01580123  RH  080%=      5-min Rain = 0
KTAS 250249Z 12005KT 16/12 A297 RMK A01 T01580123  RH  080%=      5-min Rain = 0
KTAS 250250Z 10006KT 16/12 A297 RMK A01 T01570123  RH  080%=      5-min Rain = 0
KTAS 250251Z 10008KT 16/12 A297 RMK A01 T01570123  RH  080%=      5-min Rain = 0
KTAS 250252Z 09007KT 16/12 A297 RMK A01 T01570123  RH  080%=      5-min Rain = 0
KTAS 250253Z 10007KT 16/12 A297 RMK A01 T01560123  RH  081%=      5-min Rain = 0
KTAS 250254Z 10008KT 16/12 A297 RMK A01 T01560123  RH  081%=      5-min Rain = 0
KTAS 250255Z 11009KT 16/12 A297 RMK A01 T01550124  RH  081%=      5-min Rain = 0
KTAS 250256Z 11008KT 16/12 A297 RMK A01 T01550124  RH  082%=      5-min Rain = 0
KTAS 250257Z 11010KT 15/12 A297 RMK A01 T01540122  RH  081%=      5-min Rain = 0
KTAS 250258Z 13008G13KT 16/12 A297 RMK A01 T01570118  RH  078%=      5-min Rain = 0
KTAS 250259Z 11011KT 16/12 A297 RMK A01 T01580118  RH  077%=      5-min Rain = 0
KTAS 250300Z 10013KT 16/12 A297 RMK A01 T01580118  RH  077%=      5-min Rain = 0
KTAS 250301Z 09009KT 16/12 A297 RMK A01 T01580119  RH  077%=      5-min Rain = 0
KTAS 250302Z 09012KT 16/12 A297 RMK A01 T01570120  RH  078%=      5-min Rain = 0
KTAS 250303Z 09010KT 16/12 A297 RMK A01 T01570120  RH  078%=      5-min Rain = 0
KTAS 250304Z 08010KT 16/12 A297 RMK A01 T01570121  RH  079%=      5-min Rain = 0
KTAS 250305Z 09009KT 16/12 A297 RMK A01 T01560121  RH  080%=      5-min Rain = 0
KTAS 250306Z 09009KT 16/12 A297 RMK A01 T01550122  RH  081%=      5-min Rain = 0
KTAS 250307Z 09011KT 15/12 A297 RMK A01 T01540122  RH  081%=      5-min Rain = 0
KTAS 250308Z 10012KT 16/12 A297 RMK A01 T01550120  RH  080%=      5-min Rain = 0
KTAS 250309Z 09010KT 16/12 A297 RMK A01 T01570120  RH  079%=      5-min Rain = 0
KTAS 250310Z 10010KT 16/12 A297 RMK A01 T01570120  RH  078%=      5-min Rain = 0
KTAS 250311Z 09009KT 16/12 A297 RMK A01 T01570120  RH  079%=      5-min Rain = 0
KTAS 250312Z 09008KT 16/12 A297 RMK A01 T01560121  RH  079%=      5-min Rain = 0
KTAS 250313Z 09008KT 16/12 A297 RMK A01 T01550121  RH  080%=      5-min Rain = 0
KTAS 250314Z 10007KT 16/12 A297 RMK A01 T01550121  RH  080%=      5-min Rain = 0
KTAS 250315Z 11007KT 16/12 A297 RMK A01 T01550122  RH  081%=      5-min Rain = 0
KTAS 250316Z 10009KT 15/12 A297 RMK A01 T01540121  RH  080%=      5-min Rain = 0
KTAS 250317Z 11010KT 16/12 A2969 RMK A01 T01550121  RH  080%=      5-min Rain = 0
KTAS 250318Z 11012KT 16/12 A2969 RMK A01 T01560121  RH  080%=      5-min Rain = 0
KTAS 250319Z 11012KT 16/12 A2969 RMK A01 T01570121  RH  079%=      5-min Rain = 0
KTAS 250320Z 11012KT 16/12 A2969 RMK A01 T01580121  RH  079%=      5-min Rain = 0
KTAS 250321Z 11012KT 16/12 A2969 RMK A01 T01580121  RH  078%=      5-min Rain = 0
KTAS 250322Z 11010KT 16/12 A297 RMK A01 T01590120  RH  077%=      5-min Rain = 0
KTAS 250323Z 10011KT 16/12 A297 RMK A01 T01600120  RH  077%=      5-min Rain = 0
KTAS 250324Z 11011KT 16/12 A297 RMK A01 T01600121  RH  077%=      5-min Rain = 0
KTAS 250325Z 10012KT 16/12 A297 RMK A01 T01600121  RH  078%=      5-min Rain = 0
KTAS 250326Z 10012KT 16/12 A297 RMK A01 T01600121  RH  078%=      5-min Rain = 0
KTAS 250327Z 10011G16KT 16/12 A297 RMK A01 T01610122  RH  078%=      5-min Rain = 0
KTAS 250328Z 10010KT 16/12 A297 RMK A01 T01610122  RH  078%=      5-min Rain = 0
KTAS 250329Z 10011KT 16/12 A297 RMK A01 T01600122  RH  078%=      5-min Rain = 0
KTAS 250330Z 10011KT 16/12 A297 RMK A01 T01590122  RH  079%=      5-min Rain = 0
KTAS 250331Z 10010KT 16/12 A297 RMK A01 T01600123  RH  079%=      5-min Rain = 0
KTAS 250332Z 10010KT 16/12 A297 RMK A01 T01590123  RH  079%=      5-min Rain = 0
KTAS 250333Z 11010KT 16/12 A297 RMK A01 T01600122  RH  078%=      5-min Rain = 0
KTAS 250334Z 11009KT 16/12 A297 RMK A01 T01610122  RH  078%=      5-min Rain = 0
KTAS 250335Z 11010KT 16/12 A297 RMK A01 T01610122  RH  078%=      5-min Rain = 0
KTAS 250336Z 11010KT 16/12 A297 RMK A01 T01610121  RH  077%=      5-min Rain = 0
KTAS 250337Z 11010KT 16/12 A297 RMK A01 T01610122  RH  078%=      5-min Rain = 0
KTAS 250338Z 10011KT 16/12 A297 RMK A01 T01620122  RH  077%=      5-min Rain = 0
KTAS 250339Z 11012KT 16/12 A297 RMK A01 T01620121  RH  076%=      5-min Rain = 0
KTAS 250340Z 11012G17KT 16/12 A297 RMK A01 T01630121  RH  076%=      5-min Rain = 0
KTAS 250341Z 11012KT 16/12 A297 RMK A01 T01640121  RH  076%=      5-min Rain = 0
KTAS 250342Z 11012KT 16/12 A297 RMK A01 T01640121  RH  075%=      5-min Rain = 0
KTAS 250343Z 11014KT 16/12 A297 RMK A01 T01640120  RH  075%=      5-min Rain = 0
KTAS 250344Z 11011KT 17/12 A297 RMK A01 T01650120  RH  075%=      5-min Rain = 0
KTAS 250345Z 11011KT 17/12 A297 RMK A01 T01650121  RH  075%=      5-min Rain = 0
KTAS 250346Z 11013KT 17/12 A297 RMK A01 T01650120  RH  075%=      5-min Rain = 0
KTAS 250347Z 11011KT 17/12 A297 RMK A01 T01660118  RH  073%=      5-min Rain = 0
KTAS 250348Z 11010KT 17/12 A297 RMK A01 T01670118  RH  073%=      5-min Rain = 0
KTAS 250349Z 12008KT 17/12 A2971 RMK A01 T01670119  RH  074%=      5-min Rain = 0
KTAS 250350Z 12007KT 17/12 A2971 RMK A01 T01650120  RH  075%=      5-min Rain = 0
KTAS 250351Z 12008KT 16/12 A2971 RMK A01 T01640121  RH  076%=      5-min Rain = 0
KTAS 250352Z 12009KT 16/12 A2971 RMK A01 T01630122  RH  076%=      5-min Rain = 0
KTAS 250353Z 13008KT 16/12 A2972 RMK A01 T01630123  RH  077%=      5-min Rain = 0
KTAS 250354Z 13009KT 16/12 A2972 RMK A01 T01620124  RH  078%=      5-min Rain = 0
KTAS 250355Z 13011KT 16/12 A2972 RMK A01 T01620124  RH  078%=      5-min Rain = 0
KTAS 250356Z 13010KT 16/12 A2972 RMK A01 T01620124  RH  078%=      5-min Rain = 0
KTAS 250357Z 12009KT 16/12 A2972 RMK A01 T01630124  RH  078%=      5-min Rain = 0
KTAS 250358Z 12009KT 16/12 A2972 RMK A01 T01620124  RH  078%=      5-min Rain = 0
KTAS 250359Z 13009KT 16/13 A2972 RMK A01 T01620125  RH  079%=      5-min Rain = 0
KTAS 250400Z 12009KT 16/12 A2972 RMK A01 T01620124  RH  078%=      5-min Rain = 0
KTAS 250401Z 12009KT 16/12 A2973 RMK A01 T01630124  RH  078%=      5-min Rain = 0
KTAS 250402Z 12010KT 16/12 A2973 RMK A01 T01630124  RH  078%=      5-min Rain = 0
KTAS 250403Z 12011KT 16/12 A2973 RMK A01 T01630123  RH  077%=      5-min Rain = 0
KTAS 250404Z 13011KT 16/12 A2973 RMK A01 T01640123  RH  076%=      5-min Rain = 0
KTAS 250405Z 12010KT 17/12 A2973 RMK A01 T01650122  RH  076%=      5-min Rain = 0
KTAS 250406Z 12010KT 17/12 A2973 RMK A01 T01660121  RH  075%=      5-min Rain = 0
KTAS 250407Z 12010KT 17/12 A2973 RMK A01 T01660121  RH  074%=      5-min Rain = 0
KTAS 250408Z 13010KT 17/12 A2973 RMK A01 T01670120  RH  074%=      5-min Rain = 0
KTAS 250409Z 13010KT 17/12 A2973 RMK A01 T01670119  RH  073%=      5-min Rain = 0
KTAS 250410Z 12011KT 17/12 A2973 RMK A01 T01680120  RH  073%=      5-min Rain = 0
KTAS 250411Z 12010KT 17/12 A2974 RMK A01 T01680120  RH  073%=      5-min Rain = 0
KTAS 250412Z 13010KT 17/12 A2974 RMK A01 T01680120  RH  073%=      5-min Rain = 0
KTAS 250413Z 13010KT 17/12 A2974 RMK A01 T01680119  RH  073%=      5-min Rain = 0
KTAS 250414Z 12009KT 17/12 A2974 RMK A01 T01690120  RH  073%=      5-min Rain = 0
KTAS 250415Z 12008KT 17/12 A2975 RMK A01 T01690120  RH  073%=      5-min Rain = 0
KTAS 250416Z 11010KT 17/12 A2975 RMK A01 T01690120  RH  073%=      5-min Rain = 0
KTAS 250417Z 12011KT 17/12 A2975 RMK A01 T01700117  RH  071%=      5-min Rain = 0
KTAS 250418Z 12011KT 17/12 A2975 RMK A01 T01710117  RH  070%=      5-min Rain = 0
KTAS 250419Z 12010KT 17/12 A2975 RMK A01 T01720117  RH  070%=      5-min Rain = 0
KTAS 250420Z 13010KT 17/12 A2976 RMK A01 T01720119  RH  071%=      5-min Rain = 0
KTAS 250421Z 12009KT 17/12 A2976 RMK A01 T01710120  RH  072%=      5-min Rain = 0
KTAS 250422Z 13009KT 17/12 A2976 RMK A01 T01700120  RH  072%=      5-min Rain = 0
KTAS 250423Z 12009KT 17/12 A2976 RMK A01 T01700120  RH  072%=      5-min Rain = 0
KTAS 250424Z 11008KT 17/12 A2976 RMK A01 T01700121  RH  073%=      5-min Rain = 0
KTAS 250425Z 11010KT 17/12 A2976 RMK A01 T01700120  RH  073%=      5-min Rain = 0
KTAS 250426Z 11009KT 17/12 A2976 RMK A01 T01700120  RH  072%=      5-min Rain = 0
KTAS 250427Z 11010KT 17/12 A2977 RMK A01 T01700119  RH  072%=      5-min Rain = 0
KTAS 250428Z 12009KT 17/12 A2977 RMK A01 T01710118  RH  071%=      5-min Rain = 0
KTAS 250429Z 11008KT 17/12 A2977 RMK A01 T01720119  RH  071%=      5-min Rain = 0
KTAS 250430Z 11009KT 17/12 A2977 RMK A01 T01710119  RH  071%=      5-min Rain = 0
KTAS 250431Z 11010KT 17/12 A2977 RMK A01 T01710119  RH  071%=      5-min Rain = 0
KTAS 250432Z 11011KT 17/12 A2978 RMK A01 T01720119  RH  071%=      5-min Rain = 0
KTAS 250433Z 11013KT 17/12 A2978 RMK A01 T01720117  RH  070%=      5-min Rain = 0
KTAS 250434Z 11013KT 17/12 A2978 RMK A01 T01740117  RH  069%=      5-min Rain = 0
KTAS 250435Z 10011KT 17/12 A2978 RMK A01 T01740118  RH  069%=      5-min Rain = 0
KTAS 250436Z 10013KT 17/12 A2979 RMK A01 T01730120  RH  071%=      5-min Rain = 0
KTAS 250437Z 11013KT 17/12 A2979 RMK A01 T01730120  RH  071%=      5-min Rain = 0
KTAS 250438Z 10014KT 17/12 A2979 RMK A01 T01730120  RH  071%=      5-min Rain = 0
KTAS 250439Z 11014KT 17/12 A2979 RMK A01 T01730120  RH  071%=      5-min Rain = 0
KTAS 250440Z 11013KT 17/12 A2979 RMK A01 T01730120  RH  071%=      5-min Rain = 0
KTAS 250441Z 10014KT 17/12 A2979 RMK A01 T01720120  RH  071%=      5-min Rain = 0
KTAS 250442Z 10013KT 17/12 A298 RMK A01 T01730120  RH  071%=      5-min Rain = 0
KTAS 250443Z 10012KT 17/12 A298 RMK A01 T01730121  RH  072%=      5-min Rain = 0
KTAS 250444Z 10014KT 17/12 A298 RMK A01 T01720121  RH  072%=      5-min Rain = 0
KTAS 250445Z 10013KT 17/12 A298 RMK A01 T01720121  RH  072%=      5-min Rain = 0
KTAS 250446Z 10012KT 17/12 A298 RMK A01 T01710122  RH  073%=      5-min Rain = 0
KTAS 250447Z 09011KT 17/12 A298 RMK A01 T01710123  RH  073%=      5-min Rain = 0
KTAS 250448Z 10010KT 17/12 A2981 RMK A01 T01700123  RH  074%=      5-min Rain = 0
KTAS 250449Z 11012KT 17/12 A2981 RMK A01 T01690123  RH  074%=      5-min Rain = 0
KTAS 250450Z 10010KT 17/12 A2981 RMK A01 T01690123  RH  074%=      5-min Rain = 0
KTAS 250451Z 11012KT 17/12 A2981 RMK A01 T01690122  RH  074%=      5-min Rain = 0
KTAS 250452Z 11013KT 17/12 A2981 RMK A01 T01690121  RH  073%=      5-min Rain = 0
KTAS 250453Z 10014G20KT 17/12 A2981 RMK A01 T01700121  RH  073%=      5-min Rain = 0
KTAS 250454Z 10015KT 17/12 A2982 RMK A01 T01700121  RH  073%=      5-min Rain = 0
KTAS 250455Z 10015KT 17/12 A2982 RMK A01 T01700121  RH  073%=      5-min Rain = 0
KTAS 250456Z 10014KT 17/12 A2982 RMK A01 T01700122  RH  073%=      5-min Rain = 0
KTAS 250457Z 10014KT 17/12 A2982 RMK A01 T01690123  RH  074%=      5-min Rain = 0
KTAS 250458Z 10012KT 17/12 A2982 RMK A01 T01680123  RH  074%=      5-min Rain = 0
KTAS 250459Z 10015KT 17/12 A2982 RMK A01 T01680123  RH  075%=      5-min Rain = 0

Page generated in 0.0779 seconds.